Observation data for Coyanosa on 02/22/2019      Previous  Date  Next       Current Mesonet Observations  Soil Data  Daily Summary Page  Observations in Plain Language
KCO1 220600Z 15020KT 11/03 A2978 RMK A01 T01140025  RH  054%=      5-min Rain = 0
KCO1 220601Z 15019G24KT 12/03 A2978 RMK A01 T01150025  RH  054%=      5-min Rain = 0
KCO1 220602Z 15018KT 12/03 A2978 RMK A01 T01150025  RH  054%=      5-min Rain = 0
KCO1 220603Z 15021G27KT 12/03 A2978 RMK A01 T01150025  RH  054%=      5-min Rain = 0
KCO1 220604Z 15020G25KT 12/03 A2978 RMK A01 T01150025  RH  054%=      5-min Rain = 0
KCO1 220605Z 15016G21KT 12/03 A2978 RMK A01 T01150025  RH  054%=      5-min Rain = 0
KCO1 220606Z 14015KT 11/03 A2978 RMK A01 T01140025  RH  054%=      5-min Rain = 0
KCO1 220607Z 15016G21KT 11/03 A2978 RMK A01 T01140025  RH  054%=      5-min Rain = 0
KCO1 220608Z 15020G25KT 11/02 A2978 RMK A01 T01130024  RH  054%=      5-min Rain = 0
KCO1 220609Z 15018G24KT 11/03 A2978 RMK A01 T01130025  RH  055%=      5-min Rain = 0
KCO1 220610Z 15018G24KT 11/03 A2978 RMK A01 T01130025  RH  054%=      5-min Rain = 0
KCO1 220611Z 15018KT 11/02 A2978 RMK A01 T01130024  RH  054%=      5-min Rain = 0
KCO1 220612Z 15017KT 11/02 A2978 RMK A01 T01130024  RH  054%=      5-min Rain = 0
KCO1 220613Z 15018KT 11/03 A2978 RMK A01 T01130025  RH  054%=      5-min Rain = 0
KCO1 220614Z 15018KT 11/03 A2978 RMK A01 T01130025  RH  054%=      5-min Rain = 0
KCO1 220615Z 15015KT 11/03 A2978 RMK A01 T01130025  RH  054%=      5-min Rain = 0
KCO1 220616Z 14017KT 11/02 A2978 RMK A01 T01120024  RH  055%=      5-min Rain = 0
KCO1 220617Z 15017KT 11/03 A2978 RMK A01 T01120025  RH  055%=      5-min Rain = 0
KCO1 220618Z 15014KT 11/03 A2978 RMK A01 T01120025  RH  055%=      5-min Rain = 0
KCO1 220619Z 14016KT 11/02 A2978 RMK A01 T01120024  RH  055%=      5-min Rain = 0
KCO1 220620Z 15017KT 11/03 A2978 RMK A01 T01120025  RH  055%=      5-min Rain = 0
KCO1 220621Z 14015KT 11/03 A2978 RMK A01 T01110025  RH  055%=      5-min Rain = 0
KCO1 220622Z 15015KT 11/03 A2978 RMK A01 T01110025  RH  055%=      5-min Rain = 0
KCO1 220623Z 14017G22KT 11/02 A2978 RMK A01 T01100024  RH  055%=      5-min Rain = 0
KCO1 220624Z 15018KT 11/03 A2978 RMK A01 T01100025  RH  055%=      5-min Rain = 0
KCO1 220625Z 15015KT 11/03 A2978 RMK A01 T01110025  RH  055%=      5-min Rain = 0
KCO1 220626Z 14014KT 11/02 A2978 RMK A01 T01100024  RH  055%=      5-min Rain = 0
KCO1 220627Z 14016KT 11/02 A2978 RMK A01 T01100024  RH  056%=      5-min Rain = 0
KCO1 220628Z 15014KT 11/03 A2978 RMK A01 T01100025  RH  056%=      5-min Rain = 0
KCO1 220629Z 14016KT 11/03 A2978 RMK A01 T01090025  RH  056%=      5-min Rain = 0
KCO1 220630Z 14015KT 11/03 A2978 RMK A01 T01090025  RH  056%=      5-min Rain = 0
KCO1 220631Z 15014KT 11/03 A2978 RMK A01 T01090025  RH  056%=      5-min Rain = 0
KCO1 220632Z 14015G20KT 11/03 A2978 RMK A01 T01090025  RH  056%=      5-min Rain = 0
KCO1 220633Z 14015KT 11/03 A2978 RMK A01 T01080025  RH  056%=      5-min Rain = 0
KCO1 220634Z 14015KT 11/03 A2978 RMK A01 T01080025  RH  056%=      5-min Rain = 0
KCO1 220635Z 14016KT 11/03 A2978 RMK A01 T01080025  RH  056%=      5-min Rain = 0
KCO1 220636Z 15015KT 11/03 A2978 RMK A01 T01080025  RH  057%=      5-min Rain = 0
KCO1 220637Z 14016KT 11/03 A2978 RMK A01 T01080025  RH  057%=      5-min Rain = 0
KCO1 220638Z 14014KT 11/03 A2978 RMK A01 T01080025  RH  057%=      5-min Rain = 0
KCO1 220639Z 14013KT 11/03 A2978 RMK A01 T01080025  RH  057%=      5-min Rain = 0
KCO1 220640Z 14013KT 11/03 A2978 RMK A01 T01070025  RH  057%=      5-min Rain = 0
KCO1 220641Z 14015KT 11/03 A2978 RMK A01 T01060025  RH  057%=      5-min Rain = 0
KCO1 220642Z 14015G20KT 11/03 A2978 RMK A01 T01060025  RH  057%=      5-min Rain = 0
KCO1 220643Z 14016G23KT 11/03 A2978 RMK A01 T01060025  RH  057%=      5-min Rain = 0
KCO1 220644Z 14017G22KT 11/03 A2978 RMK A01 T01060025  RH  057%=      5-min Rain = 0
KCO1 220645Z 14017KT 11/03 A2977 RMK A01 T01060025  RH  057%=      5-min Rain = 0
KCO1 220646Z 14017KT 11/03 A2977 RMK A01 T01070026  RH  057%=      5-min Rain = 0
KCO1 220647Z 14017KT 11/03 A2977 RMK A01 T01070025  RH  057%=      5-min Rain = 0
KCO1 220648Z 14016KT 11/03 A2978 RMK A01 T01070026  RH  057%=      5-min Rain = 0
KCO1 220649Z 14014KT 11/03 A2978 RMK A01 T01070025  RH  057%=      5-min Rain = 0
KCO1 220650Z 14016KT 11/03 A2978 RMK A01 T01060026  RH  057%=      5-min Rain = 0
KCO1 220651Z 14016G22KT 11/03 A2978 RMK A01 T01060026  RH  058%=      5-min Rain = 0
KCO1 220652Z 14018KT 11/03 A2978 RMK A01 T01050026  RH  058%=      5-min Rain = 0
KCO1 220653Z 14014G20KT 11/03 A2978 RMK A01 T01060026  RH  058%=      5-min Rain = 0
KCO1 220654Z 14015KT 11/03 A2978 RMK A01 T01060026  RH  058%=      5-min Rain = 0
KCO1 220655Z 14015G21KT 11/03 A2978 RMK A01 T01060026  RH  058%=      5-min Rain = 0
KCO1 220656Z 14014KT 11/03 A2978 RMK A01 T01050026  RH  058%=      5-min Rain = 0
KCO1 220657Z 14015KT 11/03 A2978 RMK A01 T01050026  RH  058%=      5-min Rain = 0
KCO1 220658Z 14016KT 11/03 A2978 RMK A01 T01050026  RH  058%=      5-min Rain = 0
KCO1 220659Z 14012G17KT 11/03 A2978 RMK A01 T01050026  RH  058%=      5-min Rain = 0
KCO1 220700Z 14014KT 11/03 A2978 RMK A01 T01050026  RH  058%=      5-min Rain = 0
KCO1 220701Z 14016KT 11/03 A2978 RMK A01 T01050026  RH  058%=      5-min Rain = 0
KCO1 220702Z 14015KT 11/03 A2978 RMK A01 T01050026  RH  058%=      5-min Rain = 0
KCO1 220703Z 15015KT 11/03 A2978 RMK A01 T01050026  RH  058%=      5-min Rain = 0
KCO1 220704Z 15014KT 11/03 A2978 RMK A01 T01050026  RH  058%=      5-min Rain = 0
KCO1 220705Z 14016KT 11/03 A2978 RMK A01 T01050026  RH  058%=      5-min Rain = 0
KCO1 220706Z 14016KT 10/03 A2978 RMK A01 T01040026  RH  058%=      5-min Rain = 0
KCO1 220707Z 15015KT 10/03 A2978 RMK A01 T01040026  RH  058%=      5-min Rain = 0
KCO1 220708Z 14015KT 10/03 A2978 RMK A01 T01040026  RH  059%=      5-min Rain = 0
KCO1 220709Z 15013KT 10/03 A2978 RMK A01 T01040026  RH  058%=      5-min Rain = 0
KCO1 220710Z 15013KT 10/03 A2978 RMK A01 T01040026  RH  059%=      5-min Rain = 0
KCO1 220711Z 15013KT 10/03 A2978 RMK A01 T01040027  RH  059%=      5-min Rain = 0
KCO1 220712Z 15013KT 10/03 A2978 RMK A01 T01030026  RH  059%=      5-min Rain = 0
KCO1 220713Z 15013KT 10/03 A2978 RMK A01 T01030026  RH  059%=      5-min Rain = 0
KCO1 220714Z 15012KT 10/03 A2978 RMK A01 T01030026  RH  059%=      5-min Rain = 0
KCO1 220715Z 15013KT 10/03 A2978 RMK A01 T01020026  RH  059%=      5-min Rain = 0
KCO1 220716Z 14013KT 10/03 A2978 RMK A01 T01020026  RH  059%=      5-min Rain = 0
KCO1 220717Z 15013KT 10/03 A2978 RMK A01 T01020026  RH  059%=      5-min Rain = 0
KCO1 220718Z 15013KT 10/03 A2978 RMK A01 T01020026  RH  059%=      5-min Rain = 0
KCO1 220719Z 15012KT 10/03 A2978 RMK A01 T01010026  RH  060%=      5-min Rain = 0
KCO1 220720Z 15011KT 10/03 A2978 RMK A01 T01010026  RH  060%=      5-min Rain = 0
KCO1 220721Z 15012KT 10/03 A2978 RMK A01 T01010026  RH  060%=      5-min Rain = 0
KCO1 220722Z 15011KT 10/03 A2978 RMK A01 T01000026  RH  060%=      5-min Rain = 0
KCO1 220723Z 14013KT 10/03 A2978 RMK A01 T01000026  RH  060%=      5-min Rain = 0
KCO1 220724Z 14012KT 10/03 A2978 RMK A01 T01000026  RH  060%=      5-min Rain = 0
KCO1 220725Z 15012KT 10/03 A2979 RMK A01 T01000026  RH  060%=      5-min Rain = 0
KCO1 220726Z 15011KT 10/03 A2979 RMK A01 T00990026  RH  060%=      5-min Rain = 0
KCO1 220727Z 15012KT 10/03 A2979 RMK A01 T00990026  RH  060%=      5-min Rain = 0
KCO1 220728Z 15010KT 10/03 A2979 RMK A01 T00990026  RH  060%=      5-min Rain = 0
KCO1 220729Z 15010KT 10/03 A2979 RMK A01 T00990026  RH  060%=      5-min Rain = 0
KCO1 220730Z 15010KT 10/03 A2979 RMK A01 T00990026  RH  060%=      5-min Rain = 0
KCO1 220731Z 15010KT 10/03 A2979 RMK A01 T00980026  RH  061%=      5-min Rain = 0
KCO1 220732Z 15009KT 10/03 A2979 RMK A01 T00980026  RH  061%=      5-min Rain = 0
KCO1 220733Z 15010KT 10/03 A2979 RMK A01 T00970025  RH  061%=      5-min Rain = 0
KCO1 220734Z 15010KT 10/03 A2979 RMK A01 T00970025  RH  061%=      5-min Rain = 0
KCO1 220735Z 15010KT 10/03 A2979 RMK A01 T00960025  RH  061%=      5-min Rain = 0
KCO1 220736Z 14012KT 10/03 A2979 RMK A01 T00960025  RH  061%=      5-min Rain = 0
KCO1 220737Z 14013KT 10/03 A2979 RMK A01 T00960026  RH  062%=      5-min Rain = 0
KCO1 220738Z 14012KT 10/03 A2979 RMK A01 T00960026  RH  062%=      5-min Rain = 0
KCO1 220739Z 14012KT 10/03 A2979 RMK A01 T00960025  RH  061%=      5-min Rain = 0
KCO1 220740Z 14012KT 10/03 A2979 RMK A01 T00960026  RH  061%=      5-min Rain = 0
KCO1 220741Z 14013KT 10/03 A2979 RMK A01 T00960026  RH  062%=      5-min Rain = 0
KCO1 220742Z 13012KT 10/03 A2979 RMK A01 T00960026  RH  062%=      5-min Rain = 0
KCO1 220743Z 14012KT 10/03 A2979 RMK A01 T00960026  RH  062%=      5-min Rain = 0
KCO1 220744Z 14011KT 10/03 A2979 RMK A01 T00960026  RH  062%=      5-min Rain = 0
KCO1 220745Z 14010KT 10/03 A2979 RMK A01 T00960026  RH  062%=      5-min Rain = 0
KCO1 220746Z 15009KT 10/03 A2979 RMK A01 T00960026  RH  062%=      5-min Rain = 0
KCO1 220747Z 15010KT 10/03 A2979 RMK A01 T00950026  RH  062%=      5-min Rain = 0
KCO1 220748Z 15010KT 10/03 A2979 RMK A01 T00960027  RH  062%=      5-min Rain = 0
KCO1 220749Z 14010KT 10/03 A2979 RMK A01 T00970027  RH  062%=      5-min Rain = 0
KCO1 220750Z 14010KT 10/03 A2979 RMK A01 T00970027  RH  062%=      5-min Rain = 0
KCO1 220751Z 14010KT 10/03 A2979 RMK A01 T00970027  RH  062%=      5-min Rain = 0
KCO1 220752Z 14011KT 10/03 A2979 RMK A01 T00970027  RH  062%=      5-min Rain = 0
KCO1 220753Z 14010KT 10/03 A2979 RMK A01 T00970027  RH  062%=      5-min Rain = 0
KCO1 220754Z 14010KT 10/03 A2979 RMK A01 T00960027  RH  062%=      5-min Rain = 0
KCO1 220755Z 15009KT 10/03 A2979 RMK A01 T00960027  RH  062%=      5-min Rain = 0
KCO1 220756Z 15008KT 10/03 A2979 RMK A01 T00960028  RH  062%=      5-min Rain = 0
KCO1 220757Z 15009KT 10/03 A2979 RMK A01 T00960027  RH  062%=      5-min Rain = 0
KCO1 220758Z 15008KT 10/03 A2979 RMK A01 T00960028  RH  062%=      5-min Rain = 0
KCO1 220759Z 15008KT 10/03 A2979 RMK A01 T00960028  RH  062%=      5-min Rain = 0
KCO1 220800Z 15008KT 10/03 A2979 RMK A01 T00960028  RH  062%=      5-min Rain = 0
KCO1 220801Z 15008KT 10/03 A2979 RMK A01 T00960028  RH  062%=      5-min Rain = 0
KCO1 220802Z 15007KT 10/03 A2979 RMK A01 T00960028  RH  062%=      5-min Rain = 0
KCO1 220803Z 15009KT 10/03 A2979 RMK A01 T00960028  RH  062%=      5-min Rain = 0
KCO1 220804Z 14008KT 10/03 A298 RMK A01 T00960028  RH  062%=      5-min Rain = 0
KCO1 220805Z 14006KT 10/03 A298 RMK A01 T00960028  RH  062%=      5-min Rain = 0
KCO1 220806Z 14005KT 10/03 A298 RMK A01 T00960028  RH  062%=      5-min Rain = 0
KCO1 220807Z 14005KT 10/03 A298 RMK A01 T00960028  RH  063%=      5-min Rain = 0
KCO1 220808Z 14004KT 10/03 A298 RMK A01 T00950028  RH  063%=      5-min Rain = 0
KCO1 220809Z 13002KT 10/03 A298 RMK A01 T00950027  RH  063%=      5-min Rain = 0
KCO1 220810Z 09001KT 09/03 A2981 RMK A01 T00940027  RH  063%=      5-min Rain = 0
KCO1 220811Z 33002KT 09/03 A2981 RMK A01 T00930027  RH  063%=      5-min Rain = 0
KCO1 220812Z 33004KT 09/03 A2981 RMK A01 T00930027  RH  063%=      5-min Rain = 0
KCO1 220813Z 34006KT 09/03 A2981 RMK A01 T00930027  RH  063%=      5-min Rain = 0
KCO1 220814Z 35007KT 09/03 A2981 RMK A01 T00920026  RH  063%=      5-min Rain = 0
KCO1 220815Z 36008KT 09/02 A2981 RMK A01 T00900023  RH  063%=      5-min Rain = 0
KCO1 220816Z 00008KT 09/02 A2981 RMK A01 T00860021  RH  063%=      5-min Rain = 0
KCO1 220817Z 01007KT 08/02 A2981 RMK A01 T00830020  RH  065%=      5-min Rain = 0
KCO1 220818Z 02007KT 08/02 A2981 RMK A01 T00810021  RH  066%=      5-min Rain = 0
KCO1 220819Z 04007KT 08/02 A2981 RMK A01 T00800023  RH  067%=      5-min Rain = 0
KCO1 220820Z 05006KT 08/02 A2981 RMK A01 T00800024  RH  067%=      5-min Rain = 0
KCO1 220821Z 07006KT 08/02 A2981 RMK A01 T00800024  RH  068%=      5-min Rain = 0
KCO1 220822Z 08007KT 08/02 A2981 RMK A01 T00800024  RH  068%=      5-min Rain = 0
KCO1 220823Z 08007KT 08/03 A2981 RMK A01 T00800025  RH  068%=      5-min Rain = 0
KCO1 220824Z 09007KT 08/02 A2981 RMK A01 T00790024  RH  068%=      5-min Rain = 0
KCO1 220825Z 08006KT 08/03 A2981 RMK A01 T00800026  RH  069%=      5-min Rain = 0
KCO1 220826Z 08006KT 08/03 A2981 RMK A01 T00820026  RH  068%=      5-min Rain = 0
KCO1 220827Z 07005KT 08/03 A2981 RMK A01 T00820025  RH  068%=      5-min Rain = 0
KCO1 220828Z 06005KT 08/03 A2982 RMK A01 T00820025  RH  068%=      5-min Rain = 0
KCO1 220829Z 04005KT 08/03 A2982 RMK A01 T00810025  RH  068%=      5-min Rain = 0
KCO1 220830Z 03006KT 08/03 A2982 RMK A01 T00810025  RH  068%=      5-min Rain = 0
KCO1 220831Z 02006KT 08/03 A2982 RMK A01 T00810025  RH  068%=      5-min Rain = 0
KCO1 220832Z 02006KT 08/03 A2982 RMK A01 T00810026  RH  068%=      5-min Rain = 0
KCO1 220833Z 02007KT 08/03 A2982 RMK A01 T00820026  RH  068%=      5-min Rain = 0
KCO1 220834Z 02005KT 08/03 A2982 RMK A01 T00810025  RH  067%=      5-min Rain = 0
KCO1 220835Z 03005KT 08/02 A2982 RMK A01 T00800023  RH  068%=      5-min Rain = 0
KCO1 220836Z 05005KT 08/02 A2982 RMK A01 T00780024  RH  068%=      5-min Rain = 0
KCO1 220837Z 07005KT 08/02 A2982 RMK A01 T00780024  RH  069%=      5-min Rain = 0
KCO1 220838Z 09006KT 08/02 A2982 RMK A01 T00770024  RH  069%=      5-min Rain = 0
KCO1 220839Z 09006KT 08/03 A2981 RMK A01 T00770025  RH  070%=      5-min Rain = 0
KCO1 220840Z 10007KT 08/03 A2981 RMK A01 T00770025  RH  070%=      5-min Rain = 0
KCO1 220841Z 10008KT 08/02 A2981 RMK A01 T00760024  RH  070%=      5-min Rain = 0
KCO1 220842Z 10007KT 08/03 A2981 RMK A01 T00760025  RH  070%=      5-min Rain = 0
KCO1 220843Z 10007KT 08/03 A2981 RMK A01 T00760025  RH  070%=      5-min Rain = 0
KCO1 220844Z 10007KT 08/03 A2981 RMK A01 T00760025  RH  070%=      5-min Rain = 0
KCO1 220845Z 10007KT 08/03 A2981 RMK A01 T00760025  RH  070%=      5-min Rain = 0
KCO1 220846Z 11007KT 08/03 A2981 RMK A01 T00760025  RH  070%=      5-min Rain = 0
KCO1 220847Z 11007KT 08/03 A2981 RMK A01 T00760025  RH  070%=      5-min Rain = 0
KCO1 220848Z 10007KT 08/03 A2981 RMK A01 T00760025  RH  070%=      5-min Rain = 0
KCO1 220849Z 11008KT 08/03 A2981 RMK A01 T00760025  RH  070%=      5-min Rain = 0
KCO1 220850Z 11008KT 08/03 A2981 RMK A01 T00760026  RH  071%=      5-min Rain = 0
KCO1 220851Z 11007KT 08/03 A2981 RMK A01 T00760026  RH  070%=      5-min Rain = 0
KCO1 220852Z 11007KT 08/03 A2981 RMK A01 T00760025  RH  070%=      5-min Rain = 0
KCO1 220853Z 11008KT 08/03 A2981 RMK A01 T00750025  RH  070%=      5-min Rain = 0
KCO1 220854Z 11008KT 08/03 A2981 RMK A01 T00750025  RH  070%=      5-min Rain = 0
KCO1 220855Z 11009KT 07/03 A2981 RMK A01 T00740025  RH  071%=      5-min Rain = 0
KCO1 220856Z 11009KT 07/03 A2981 RMK A01 T00740026  RH  071%=      5-min Rain = 0
KCO1 220857Z 10008KT 08/03 A2981 RMK A01 T00750026  RH  071%=      5-min Rain = 0
KCO1 220858Z 10008KT 08/03 A2981 RMK A01 T00760027  RH  071%=      5-min Rain = 0
KCO1 220859Z 10007KT 08/03 A2981 RMK A01 T00750026  RH  071%=      5-min Rain = 0
KCO1 220900Z 10007KT 08/03 A2981 RMK A01 T00750026  RH  071%=      5-min Rain = 0
KCO1 220901Z 10007KT 07/03 A2981 RMK A01 T00740025  RH  071%=      5-min Rain = 0
KCO1 220902Z 10007KT 07/03 A2981 RMK A01 T00730025  RH  071%=      5-min Rain = 0
KCO1 220903Z 10006KT 07/03 A2981 RMK A01 T00730025  RH  072%=      5-min Rain = 0
KCO1 220904Z 10007KT 07/02 A2981 RMK A01 T00720024  RH  072%=      5-min Rain = 0
KCO1 220905Z 10008KT 07/02 A2981 RMK A01 T00710024  RH  072%=      5-min Rain = 0
KCO1 220906Z 10007KT 07/02 A2981 RMK A01 T00700024  RH  073%=      5-min Rain = 0
KCO1 220907Z 10008KT 07/03 A2981 RMK A01 T00700025  RH  073%=      5-min Rain = 0
KCO1 220908Z 10007KT 07/03 A2981 RMK A01 T00700025  RH  073%=      5-min Rain = 0
KCO1 220909Z 09007KT 07/03 A2981 RMK A01 T00700026  RH  073%=      5-min Rain = 0
KCO1 220910Z 09006KT 07/03 A2981 RMK A01 T00700026  RH  073%=      5-min Rain = 0
KCO1 220911Z 09006KT 07/03 A2981 RMK A01 T00700026  RH  074%=      5-min Rain = 0
KCO1 220912Z 09006KT 07/03 A2981 RMK A01 T00700027  RH  074%=      5-min Rain = 0
KCO1 220913Z 09007KT 07/03 A2981 RMK A01 T00700027  RH  074%=      5-min Rain = 0
KCO1 220914Z 09007KT 07/03 A2981 RMK A01 T00700027  RH  074%=      5-min Rain = 0
KCO1 220915Z 09007KT 07/03 A2981 RMK A01 T00700027  RH  074%=      5-min Rain = 0
KCO1 220916Z 10007KT 07/03 A2981 RMK A01 T00700027  RH  074%=      5-min Rain = 0
KCO1 220917Z 10008KT 07/03 A2981 RMK A01 T00700028  RH  075%=      5-min Rain = 0
KCO1 220918Z 10007KT 07/03 A2981 RMK A01 T00700029  RH  075%=      5-min Rain = 0
KCO1 220919Z 11007KT 07/03 A2981 RMK A01 T00700029  RH  075%=      5-min Rain = 0
KCO1 220920Z 11008KT 07/03 A2981 RMK A01 T00700028  RH  075%=      5-min Rain = 0
KCO1 220921Z 11008KT 07/03 A2981 RMK A01 T00700028  RH  075%=      5-min Rain = 0
KCO1 220922Z 11008KT 07/03 A2981 RMK A01 T00690028  RH  075%=      5-min Rain = 0
KCO1 220923Z 11007KT 07/03 A2981 RMK A01 T00690028  RH  075%=      5-min Rain = 0
KCO1 220924Z 11008KT 07/03 A2981 RMK A01 T00680027  RH  075%=      5-min Rain = 0
KCO1 220925Z 11008KT 07/03 A2981 RMK A01 T00680027  RH  075%=      5-min Rain = 0
KCO1 220926Z 11008KT 07/03 A2981 RMK A01 T00680028  RH  076%=      5-min Rain = 0
KCO1 220927Z 11007KT 07/03 A2981 RMK A01 T00680028  RH  076%=      5-min Rain = 0
KCO1 220928Z 11008KT 07/03 A2981 RMK A01 T00670028  RH  076%=      5-min Rain = 0
KCO1 220929Z 10007KT 07/03 A2981 RMK A01 T00670028  RH  076%=      5-min Rain = 0
KCO1 220930Z 10008KT 07/03 A2981 RMK A01 T00670028  RH  076%=      5-min Rain = 0
KCO1 220931Z 10007KT 07/03 A2981 RMK A01 T00670029  RH  076%=      5-min Rain = 0
KCO1 220932Z 10007KT 07/03 A2981 RMK A01 T00670028  RH  076%=      5-min Rain = 0
KCO1 220933Z 10007KT 07/03 A2981 RMK A01 T00670029  RH  076%=      5-min Rain = 0
KCO1 220934Z 10007KT 07/03 A2981 RMK A01 T00680029  RH  076%=      5-min Rain = 0
KCO1 220935Z 10007KT 07/03 A2981 RMK A01 T00670029  RH  077%=      5-min Rain = 0
KCO1 220936Z 10007KT 07/03 A2981 RMK A01 T00670029  RH  076%=      5-min Rain = 0
KCO1 220937Z 10007KT 07/03 A2981 RMK A01 T00670029  RH  077%=      5-min Rain = 0
KCO1 220938Z 10008KT 07/03 A2981 RMK A01 T00670029  RH  077%=      5-min Rain = 0
KCO1 220939Z 11007KT 07/03 A2981 RMK A01 T00670029  RH  077%=      5-min Rain = 0
KCO1 220940Z 11007KT 07/03 A2981 RMK A01 T00670030  RH  077%=      5-min Rain = 0
KCO1 220941Z 11007KT 07/03 A2981 RMK A01 T00670030  RH  077%=      5-min Rain = 0
KCO1 220942Z 11007KT 07/03 A2981 RMK A01 T00670030  RH  077%=      5-min Rain = 0
KCO1 220943Z 11008KT 07/03 A2981 RMK A01 T00670029  RH  077%=      5-min Rain = 0
KCO1 220944Z 11007KT 07/03 A2981 RMK A01 T00670030  RH  077%=      5-min Rain = 0
KCO1 220945Z 11008KT 07/03 A2981 RMK A01 T00660030  RH  077%=      5-min Rain = 0
KCO1 220946Z 12008KT 07/03 A2981 RMK A01 T00660030  RH  078%=      5-min Rain = 0
KCO1 220947Z 11007KT 07/03 A2981 RMK A01 T00660030  RH  078%=      5-min Rain = 0
KCO1 220948Z 11007KT 07/03 A2981 RMK A01 T00660030  RH  078%=      5-min Rain = 0
KCO1 220949Z 11007KT 07/03 A2981 RMK A01 T00650030  RH  078%=      5-min Rain = 0
KCO1 220950Z 12007KT 07/03 A2981 RMK A01 T00650030  RH  078%=      5-min Rain = 0
KCO1 220951Z 11007KT 07/03 A2981 RMK A01 T00650029  RH  078%=      5-min Rain = 0
KCO1 220952Z 11007KT 07/03 A2981 RMK A01 T00650029  RH  078%=      5-min Rain = 0
KCO1 220953Z 11008KT 07/03 A2981 RMK A01 T00650029  RH  078%=      5-min Rain = 0
KCO1 220954Z 11007KT 07/03 A2981 RMK A01 T00650030  RH  078%=      5-min Rain = 0
KCO1 220955Z 10007KT 07/03 A2981 RMK A01 T00650030  RH  078%=      5-min Rain = 0
KCO1 220956Z 11006KT 07/03 A2981 RMK A01 T00650030  RH  078%=      5-min Rain = 0
KCO1 220957Z 11006KT 07/03 A2981 RMK A01 T00650030  RH  078%=      5-min Rain = 0
KCO1 220958Z 11006KT 07/03 A2981 RMK A01 T00650030  RH  078%=      5-min Rain = 0
KCO1 220959Z 11006KT 07/03 A2981 RMK A01 T00650030  RH  078%=      5-min Rain = 0
KCO1 221000Z 11006KT 07/03 A2981 RMK A01 T00650029  RH  078%=      5-min Rain = 0
KCO1 221001Z 11006KT 06/03 A2981 RMK A01 T00640029  RH  078%=      5-min Rain = 0
KCO1 221002Z 12006KT 06/03 A2981 RMK A01 T00640030  RH  078%=      5-min Rain = 0
KCO1 221003Z 12006KT 06/03 A2981 RMK A01 T00640029  RH  078%=      5-min Rain = 0
KCO1 221004Z 11007KT 06/03 A2981 RMK A01 T00630028  RH  078%=      5-min Rain = 0
KCO1 221005Z 11007KT 06/03 A2981 RMK A01 T00620027  RH  078%=      5-min Rain = 0
KCO1 221006Z 11007KT 06/03 A2981 RMK A01 T00620028  RH  079%=      5-min Rain = 0
KCO1 221007Z 11007KT 06/03 A2981 RMK A01 T00620028  RH  079%=      5-min Rain = 0
KCO1 221008Z 11006KT 06/03 A2981 RMK A01 T00610028  RH  079%=      5-min Rain = 0
KCO1 221009Z 10006KT 06/03 A2981 RMK A01 T00620029  RH  079%=      5-min Rain = 0
KCO1 221010Z 10006KT 06/03 A2981 RMK A01 T00610028  RH  079%=      5-min Rain = 0
KCO1 221011Z 10006KT 06/03 A2981 RMK A01 T00600028  RH  080%=      5-min Rain = 0
KCO1 221012Z 10005KT 06/03 A2982 RMK A01 T00600028  RH  080%=      5-min Rain = 0
KCO1 221013Z 10005KT 06/03 A2982 RMK A01 T00600028  RH  080%=      5-min Rain = 0
KCO1 221014Z 10006KT 06/03 A2981 RMK A01 T00600029  RH  080%=      5-min Rain = 0
KCO1 221015Z 10006KT 06/03 A2981 RMK A01 T00590029  RH  081%=      5-min Rain = 0
KCO1 221016Z 10005KT 06/03 A2982 RMK A01 T00590029  RH  081%=      5-min Rain = 0
KCO1 221017Z 10005KT 06/03 A2982 RMK A01 T00590028  RH  081%=      5-min Rain = 0
KCO1 221018Z 10005KT 06/03 A2982 RMK A01 T00580028  RH  081%=      5-min Rain = 0
KCO1 221019Z 10005KT 06/03 A2982 RMK A01 T00580028  RH  081%=      5-min Rain = 0
KCO1 221020Z 10005KT 06/03 A2982 RMK A01 T00570027  RH  081%=      5-min Rain = 0
KCO1 221021Z 09005KT 06/03 A2982 RMK A01 T00570027  RH  081%=      5-min Rain = 0
KCO1 221022Z 09005KT 06/03 A2982 RMK A01 T00560027  RH  082%=      5-min Rain = 0
KCO1 221023Z 10005KT 06/03 A2982 RMK A01 T00560027  RH  082%=      5-min Rain = 0
KCO1 221024Z 10005KT 06/03 A2982 RMK A01 T00550027  RH  082%=      5-min Rain = 0
KCO1 221025Z 10005KT 06/03 A2982 RMK A01 T00550027  RH  082%=      5-min Rain = 0
KCO1 221026Z 10005KT 05/03 A2982 RMK A01 T00540027  RH  082%=      5-min Rain = 0
KCO1 221027Z 10006KT 05/03 A2982 RMK A01 T00540026  RH  083%=      5-min Rain = 0
KCO1 221028Z 10006KT 05/03 A2982 RMK A01 T00530026  RH  083%=      5-min Rain = 0
KCO1 221029Z 10006KT 05/03 A2982 RMK A01 T00530027  RH  083%=      5-min Rain = 0
KCO1 221030Z 10006KT 05/03 A2982 RMK A01 T00530027  RH  083%=      5-min Rain = 0
KCO1 221031Z 10007KT 05/03 A2982 RMK A01 T00530027  RH  083%=      5-min Rain = 0
KCO1 221032Z 10006KT 05/03 A2982 RMK A01 T00530027  RH  084%=      5-min Rain = 0
KCO1 221033Z 10006KT 05/03 A2982 RMK A01 T00530028  RH  084%=      5-min Rain = 0
KCO1 221034Z 10006KT 05/03 A2982 RMK A01 T00530027  RH  084%=      5-min Rain = 0
KCO1 221035Z 11006KT 05/03 A2982 RMK A01 T00530027  RH  084%=      5-min Rain = 0
KCO1 221036Z 11007KT 05/03 A2982 RMK A01 T00530028  RH  084%=      5-min Rain = 0
KCO1 221037Z 12007KT 05/03 A2982 RMK A01 T00520027  RH  084%=      5-min Rain = 0
KCO1 221038Z 12006KT 05/03 A2982 RMK A01 T00520027  RH  084%=      5-min Rain = 0
KCO1 221039Z 12007KT 05/03 A2981 RMK A01 T00520027  RH  084%=      5-min Rain = 0
KCO1 221040Z 12007KT 05/03 A2981 RMK A01 T00510026  RH  084%=      5-min Rain = 0
KCO1 221041Z 12007KT 05/03 A2981 RMK A01 T00510026  RH  084%=      5-min Rain = 0
KCO1 221042Z 12007KT 05/03 A2982 RMK A01 T00510027  RH  084%=      5-min Rain = 0
KCO1 221043Z 12007KT 05/03 A2982 RMK A01 T00510027  RH  085%=      5-min Rain = 0
KCO1 221044Z 12007KT 05/03 A2982 RMK A01 T00520028  RH  085%=      5-min Rain = 0
KCO1 221045Z 12007KT 05/03 A2982 RMK A01 T00520028  RH  084%=      5-min Rain = 0
KCO1 221046Z 12007KT 05/03 A2982 RMK A01 T00530028  RH  084%=      5-min Rain = 0
KCO1 221047Z 11007KT 05/03 A2982 RMK A01 T00530028  RH  084%=      5-min Rain = 0
KCO1 221048Z 11007KT 05/03 A2982 RMK A01 T00530029  RH  084%=      5-min Rain = 0
KCO1 221049Z 11007KT 05/03 A2982 RMK A01 T00540030  RH  084%=      5-min Rain = 0
KCO1 221050Z 11007KT 06/03 A2982 RMK A01 T00550030  RH  084%=      5-min Rain = 0
KCO1 221051Z 11006KT 06/03 A2982 RMK A01 T00560031  RH  084%=      5-min Rain = 0
KCO1 221052Z 11007KT 06/03 A2982 RMK A01 T00560030  RH  083%=      5-min Rain = 0
KCO1 221053Z 12008KT 06/03 A2982 RMK A01 T00550029  RH  083%=      5-min Rain = 0
KCO1 221054Z 11007KT 06/03 A2982 RMK A01 T00550028  RH  083%=      5-min Rain = 0
KCO1 221055Z 12008KT 06/03 A2982 RMK A01 T00550029  RH  084%=      5-min Rain = 0
KCO1 221056Z 12007KT 06/03 A2982 RMK A01 T00550029  RH  084%=      5-min Rain = 0
KCO1 221057Z 12008KT 05/03 A2982 RMK A01 T00540029  RH  083%=      5-min Rain = 0
KCO1 221058Z 13007KT 05/03 A2982 RMK A01 T00540028  RH  083%=      5-min Rain = 0
KCO1 221059Z 12007KT 05/03 A2982 RMK A01 T00530027  RH  083%=      5-min Rain = 0
KCO1 221100Z 12007KT 05/03 A2982 RMK A01 T00520027  RH  083%=      5-min Rain = 0
KCO1 221101Z 12007KT 05/03 A2982 RMK A01 T00520026  RH  083%=      5-min Rain = 0
KCO1 221102Z 12006KT 05/03 A2982 RMK A01 T00520026  RH  083%=      5-min Rain = 0
KCO1 221103Z 12006KT 05/03 A2982 RMK A01 T00510025  RH  083%=      5-min Rain = 0
KCO1 221104Z 12006KT 05/03 A2982 RMK A01 T00500025  RH  083%=      5-min Rain = 0
KCO1 221105Z 12007KT 05/02 A2982 RMK A01 T00500024  RH  083%=      5-min Rain = 0
KCO1 221106Z 13007KT 05/02 A2982 RMK A01 T00490024  RH  084%=      5-min Rain = 0
KCO1 221107Z 13007KT 05/02 A2982 RMK A01 T00490024  RH  084%=      5-min Rain = 0
KCO1 221108Z 13008KT 05/02 A2982 RMK A01 T00480023  RH  084%=      5-min Rain = 0
KCO1 221109Z 13008KT 05/02 A2982 RMK A01 T00480024  RH  084%=      5-min Rain = 0
KCO1 221110Z 13008KT 05/02 A2982 RMK A01 T00480024  RH  085%=      5-min Rain = 0
KCO1 221111Z 14008KT 05/03 A2982 RMK A01 T00480025  RH  085%=      5-min Rain = 0
KCO1 221112Z 14008KT 05/03 A2982 RMK A01 T00480025  RH  085%=      5-min Rain = 0
KCO1 221113Z 14007KT 05/03 A2982 RMK A01 T00480025  RH  085%=      5-min Rain = 0
KCO1 221114Z 14007KT 05/02 A2982 RMK A01 T00470024  RH  085%=      5-min Rain = 0
KCO1 221115Z 14008KT 05/02 A2982 RMK A01 T00470024  RH  085%=      5-min Rain = 0
KCO1 221116Z 14008KT 05/02 A2982 RMK A01 T00470023  RH  085%=      5-min Rain = 0
KCO1 221117Z 14008KT 05/02 A2982 RMK A01 T00470024  RH  085%=      5-min Rain = 0
KCO1 221118Z 14008KT 05/02 A2982 RMK A01 T00460023  RH  085%=      5-min Rain = 0
KCO1 221119Z 13008KT 05/02 A2982 RMK A01 T00460023  RH  085%=      5-min Rain = 0
KCO1 221120Z 13008KT 05/02 A2983 RMK A01 T00450022  RH  085%=      5-min Rain = 0
KCO1 221121Z 13008KT 05/02 A2983 RMK A01 T00450022  RH  085%=      5-min Rain = 0
KCO1 221122Z 13008KT 04/02 A2983 RMK A01 T00440021  RH  085%=      5-min Rain = 0
KCO1 221123Z 13008KT 04/02 A2983 RMK A01 T00440021  RH  085%=      5-min Rain = 0
KCO1 221124Z 14007KT 04/02 A2983 RMK A01 T00430020  RH  085%=      5-min Rain = 0
KCO1 221125Z 14008KT 04/02 A2983 RMK A01 T00430020  RH  085%=      5-min Rain = 0
KCO1 221126Z 14006KT 04/02 A2983 RMK A01 T00430020  RH  085%=      5-min Rain = 0
KCO1 221127Z 14006KT 04/02 A2983 RMK A01 T00420020  RH  085%=      5-min Rain = 0
KCO1 221128Z 15006KT 04/02 A2983 RMK A01 T00420020  RH  086%=      5-min Rain = 0
KCO1 221129Z 14006KT 04/02 A2983 RMK A01 T00420020  RH  086%=      5-min Rain = 0
KCO1 221130Z 15006KT 04/02 A2983 RMK A01 T00420020  RH  086%=      5-min Rain = 0
KCO1 221131Z 15007KT 04/02 A2983 RMK A01 T00420020  RH  086%=      5-min Rain = 0
KCO1 221132Z 15006KT 04/02 A2983 RMK A01 T00420020  RH  086%=      5-min Rain = 0
KCO1 221133Z 15006KT 04/02 A2983 RMK A01 T00420020  RH  086%=      5-min Rain = 0
KCO1 221134Z 15007KT 04/02 A2983 RMK A01 T00420020  RH  085%=      5-min Rain = 0
KCO1 221135Z 15007KT 04/02 A2983 RMK A01 T00420019  RH  085%=      5-min Rain = 0
KCO1 221136Z 16007KT 04/02 A2983 RMK A01 T00410018  RH  085%=      5-min Rain = 0
KCO1 221137Z 16007KT 04/02 A2983 RMK A01 T00410018  RH  085%=      5-min Rain = 0
KCO1 221138Z 16007KT 04/02 A2983 RMK A01 T00400018  RH  085%=      5-min Rain = 0
KCO1 221139Z 16007KT 04/02 A2983 RMK A01 T00400017  RH  085%=      5-min Rain = 0
KCO1 221140Z 16007KT 04/02 A2983 RMK A01 T00400016  RH  085%=      5-min Rain = 0
KCO1 221141Z 16007KT 04/02 A2983 RMK A01 T00400016  RH  085%=      5-min Rain = 0
KCO1 221142Z 16007KT 04/02 A2983 RMK A01 T00400016  RH  084%=      5-min Rain = 0
KCO1 221143Z 16007KT 04/02 A2983 RMK A01 T00400015  RH  084%=      5-min Rain = 0
KCO1 221144Z 16007KT 04/01 A2983 RMK A01 T00390014  RH  084%=      5-min Rain = 0
KCO1 221145Z 15007KT 04/01 A2983 RMK A01 T00390014  RH  084%=      5-min Rain = 0
KCO1 221146Z 15007KT 04/01 A2983 RMK A01 T00380013  RH  084%=      5-min Rain = 0
KCO1 221147Z 16007KT 04/01 A2983 RMK A01 T00380012  RH  083%=      5-min Rain = 0
KCO1 221148Z 16007KT 04/01 A2983 RMK A01 T00370011  RH  083%=      5-min Rain = 0
KCO1 221149Z 16007KT 04/01 A2983 RMK A01 T00370011  RH  083%=      5-min Rain = 0
KCO1 221150Z 15007KT 04/01 A2983 RMK A01 T00370011  RH  083%=      5-min Rain = 0
KCO1 221151Z 16006KT 04/01 A2983 RMK A01 T00360010  RH  083%=      5-min Rain = 0
KCO1 221152Z 16006KT 04/01 A2983 RMK A01 T00360010  RH  083%=      5-min Rain = 0
KCO1 221153Z 17005KT 04/01 A2984 RMK A01 T00360010  RH  083%=      5-min Rain = 0
KCO1 221154Z 16005KT 04/01 A2984 RMK A01 T00360009  RH  083%=      5-min Rain = 0
KCO1 221155Z 16005KT 04/01 A2984 RMK A01 T00360009  RH  082%=      5-min Rain = 0
KCO1 221156Z 16004KT 04/01 A2984 RMK A01 T00350008  RH  082%=      5-min Rain = 0
KCO1 221157Z 16004KT 04/01 A2984 RMK A01 T00350007  RH  082%=      5-min Rain = 0
KCO1 221158Z 16004KT 03/01 A2984 RMK A01 T00340007  RH  082%=      5-min Rain = 0
KCO1 221159Z 17004KT 03/01 A2984 RMK A01 T00340006  RH  082%=      5-min Rain = 0
KCO1 221200Z 17004KT 03/01 A2984 RMK A01 T00330006  RH  082%=      5-min Rain = 0
KCO1 221201Z 17005KT 03/01 A2984 RMK A01 T00320005  RH  082%=      5-min Rain = 0
KCO1 221202Z 18005KT 03/00 A2984 RMK A01 T00310004  RH  082%=      5-min Rain = 0
KCO1 221203Z 19005KT 03/00 A2984 RMK A01 T00310004  RH  083%=      5-min Rain = 0
KCO1 221204Z 19005KT 03/00 A2984 RMK A01 T00300004  RH  083%=      5-min Rain = 0
KCO1 221205Z 19006KT 03/00 A2984 RMK A01 T00300003  RH  083%=      5-min Rain = 0
KCO1 221206Z 20006KT 03/01 A2984 RMK A01 T00320005  RH  083%=      5-min Rain = 0
KCO1 221207Z 20007KT 03/01 A2984 RMK A01 T00340006  RH  082%=      5-min Rain = 0
KCO1 221208Z 20005KT 04/01 A2984 RMK A01 T00360006  RH  081%=      5-min Rain = 0
KCO1 221209Z 21005KT 04/01 A2984 RMK A01 T00370005  RH  080%=      5-min Rain = 0
KCO1 221210Z 21006KT 04/00 A2984 RMK A01 T00360004  RH  079%=      5-min Rain = 0
KCO1 221211Z 20007KT 04/00 A2984 RMK A01 T00360003  RH  079%=      5-min Rain = 0
KCO1 221212Z 21008KT 04/00 A2984 RMK A01 T00350002  RH  079%=      5-min Rain = 0
KCO1 221213Z 21008KT 04/00 A2984 RMK A01 T00360001  RH  078%=      5-min Rain = 0
KCO1 221214Z 21008KT 04/00 A2984 RMK A01 T00370001  RH  077%=      5-min Rain = 0
KCO1 221215Z 21007KT 04/00 A2984 RMK A01 T003800-0  RH  076%=      5-min Rain = 0
KCO1 221216Z 20007KT 04/M00 A2984 RMK A01 T00381001  RH  076%=      5-min Rain = 0
KCO1 221217Z 21006KT 04/M00 A2984 RMK A01 T00381001  RH  076%=      5-min Rain = 0
KCO1 221218Z 21008KT 04/M00 A2985 RMK A01 T00391001  RH  075%=      5-min Rain = 0
KCO1 221219Z 20008KT 04/M00 A2984 RMK A01 T00391002  RH  075%=      5-min Rain = 0
KCO1 221220Z 21008KT 04/M00 A2984 RMK A01 T00391003  RH  074%=      5-min Rain = 0
KCO1 221221Z 21009KT 04/M00 A2984 RMK A01 T00391003  RH  074%=      5-min Rain = 0
KCO1 221222Z 21008KT 04/M00 A2984 RMK A01 T00391003  RH  074%=      5-min Rain = 0
KCO1 221223Z 21008KT 04/M00 A2984 RMK A01 T00391003  RH  074%=      5-min Rain = 0
KCO1 221224Z 21008KT 04/M00 A2984 RMK A01 T00391004  RH  073%=      5-min Rain = 0
KCO1 221225Z 21007KT 04/M01 A2984 RMK A01 T00391005  RH  073%=      5-min Rain = 0
KCO1 221226Z 21008KT 04/M01 A2984 RMK A01 T00391005  RH  073%=      5-min Rain = 0
KCO1 221227Z 21008KT 04/M01 A2984 RMK A01 T00391005  RH  073%=      5-min Rain = 0
KCO1 221228Z 21008KT 04/M01 A2984 RMK A01 T00391006  RH  072%=      5-min Rain = 0
KCO1 221229Z 21008KT 04/M01 A2984 RMK A01 T00391006  RH  072%=      5-min Rain = 0
KCO1 221230Z 21007KT 04/M01 A2984 RMK A01 T00401006  RH  072%=      5-min Rain = 0
KCO1 221231Z 21007KT 04/M01 A2985 RMK A01 T00401007  RH  072%=      5-min Rain = 0
KCO1 221232Z 21007KT 04/M01 A2985 RMK A01 T00401007  RH  071%=      5-min Rain = 0
KCO1 221233Z 21007KT 04/M01 A2985 RMK A01 T00411007  RH  071%=      5-min Rain = 0
KCO1 221234Z 20007KT 04/M01 A2985 RMK A01 T00401008  RH  071%=      5-min Rain = 0
KCO1 221235Z 20006KT 04/M01 A2985 RMK A01 T00401008  RH  071%=      5-min Rain = 0
KCO1 221236Z 21005KT 04/M01 A2985 RMK A01 T00401009  RH  070%=      5-min Rain = 0
KCO1 221237Z 21006KT 04/M01 A2985 RMK A01 T00391009  RH  071%=      5-min Rain = 0
KCO1 221238Z 21006KT 04/M01 A2985 RMK A01 T00391010  RH  071%=      5-min Rain = 0
KCO1 221239Z 21006KT 04/M01 A2985 RMK A01 T00401009  RH  070%=      5-min Rain = 0
KCO1 221240Z 21006KT 04/M01 A2985 RMK A01 T00401010  RH  070%=      5-min Rain = 0
KCO1 221241Z 21007KT 04/M01 A2985 RMK A01 T00401010  RH  070%=      5-min Rain = 0
KCO1 221242Z 21007KT 04/M01 A2985 RMK A01 T00401011  RH  069%=      5-min Rain = 0
KCO1 221243Z 21006KT 04/M01 A2985 RMK A01 T00411011  RH  069%=      5-min Rain = 0
KCO1 221244Z 21006KT 04/M01 A2985 RMK A01 T00401012  RH  069%=      5-min Rain = 0
KCO1 221245Z 21005KT 04/M01 A2985 RMK A01 T00391012  RH  069%=      5-min Rain = 0
KCO1 221246Z 21005KT 04/M01 A2985 RMK A01 T00381013  RH  069%=      5-min Rain = 0
KCO1 221247Z 21005KT 04/M01 A2986 RMK A01 T00381013  RH  069%=      5-min Rain = 0
KCO1 221248Z 21005KT 04/M01 A2986 RMK A01 T00381013  RH  069%=      5-min Rain = 0
KCO1 221249Z 21005KT 04/M01 A2986 RMK A01 T00381013  RH  069%=      5-min Rain = 0
KCO1 221250Z 21005KT 04/M01 A2986 RMK A01 T00371014  RH  069%=      5-min Rain = 0
KCO1 221251Z 21005KT 04/M01 A2986 RMK A01 T00371014  RH  069%=      5-min Rain = 0
KCO1 221252Z 21004KT 04/M02 A2986 RMK A01 T00371015  RH  069%=      5-min Rain = 0
KCO1 221253Z 20003KT 04/M02 A2986 RMK A01 T00361016  RH  069%=      5-min Rain = 0
KCO1 221254Z 21003KT 04/M02 A2986 RMK A01 T00351016  RH  069%=      5-min Rain = 0
KCO1 221255Z 20003KT 04/M02 A2986 RMK A01 T00351016  RH  069%=      5-min Rain = 0
KCO1 221256Z 20003KT 03/M02 A2986 RMK A01 T00341017  RH  069%=      5-min Rain = 0
KCO1 221257Z 19002KT 03/M02 A2986 RMK A01 T00331018  RH  069%=      5-min Rain = 0
KCO1 221258Z 18002KT 03/M02 A2986 RMK A01 T00321018  RH  070%=      5-min Rain = 0
KCO1 221259Z 17002KT 03/M02 A2986 RMK A01 T00301019  RH  070%=      5-min Rain = 0
KCO1 221300Z 15002KT 03/M02 A2986 RMK A01 T00281020  RH  071%=      5-min Rain = 0
KCO1 221301Z 16001KT 03/M02 A2986 RMK A01 T00271019  RH  072%=      5-min Rain = 0
KCO1 221302Z 21002KT 03/M02 A2987 RMK A01 T00271017  RH  073%=      5-min Rain = 0
KCO1 221303Z 22002KT 03/M02 A2987 RMK A01 T00271017  RH  073%=      5-min Rain = 0
KCO1 221304Z 21002KT 03/M02 A2987 RMK A01 T00281017  RH  073%=      5-min Rain = 0
KCO1 221305Z 21003KT 03/M02 A2987 RMK A01 T00281018  RH  072%=      5-min Rain = 0
KCO1 221306Z 21003KT 03/M02 A2987 RMK A01 T00261019  RH  072%=      5-min Rain = 0
KCO1 221307Z 22005KT 03/M02 A2987 RMK A01 T00251020  RH  072%=      5-min Rain = 0
KCO1 221308Z 21005KT 03/M02 A2987 RMK A01 T00251019  RH  073%=      5-min Rain = 0
KCO1 221309Z 21005KT 03/M02 A2987 RMK A01 T00281017  RH  072%=      5-min Rain = 0
KCO1 221310Z 21005KT 03/M02 A2987 RMK A01 T00301018  RH  071%=      5-min Rain = 0
KCO1 221311Z 22006KT 03/M02 A2987 RMK A01 T00321019  RH  069%=      5-min Rain = 0
KCO1 221312Z 22005KT 03/M02 A2987 RMK A01 T00331020  RH  068%=      5-min Rain = 0
KCO1 221313Z 22005KT 03/M02 A2987 RMK A01 T00341020  RH  068%=      5-min Rain = 0
KCO1 221314Z 22006KT 03/M02 A2987 RMK A01 T00341020  RH  067%=      5-min Rain = 0
KCO1 221315Z 22006KT 04/M02 A2987 RMK A01 T00351021  RH  067%=      5-min Rain = 0
KCO1 221316Z 22006KT 03/M02 A2987 RMK A01 T00341021  RH  067%=      5-min Rain = 0
KCO1 221317Z 22006KT 03/M02 A2987 RMK A01 T00321022  RH  067%=      5-min Rain = 0
KCO1 221318Z 22005KT 03/M02 A2987 RMK A01 T00311023  RH  068%=      5-min Rain = 0
KCO1 221319Z 21005KT 03/M02 A2987 RMK A01 T00301023  RH  068%=      5-min Rain = 0
KCO1 221320Z 21005KT 03/M02 A2987 RMK A01 T00291023  RH  068%=      5-min Rain = 0
KCO1 221321Z 20005KT 03/M02 A2987 RMK A01 T00281024  RH  069%=      5-min Rain = 0
KCO1 221322Z 20003KT 03/M02 A2987 RMK A01 T00281024  RH  069%=      5-min Rain = 0
KCO1 221323Z 19003KT 03/M02 A2987 RMK A01 T00281024  RH  069%=      5-min Rain = 0
KCO1 221324Z 16001KT 03/M02 A2987 RMK A01 T00271024  RH  069%=      5-min Rain = 0
KCO1 221325Z 15002KT 03/M03 A2987 RMK A01 T00261025  RH  069%=      5-min Rain = 0
KCO1 221326Z 16002KT 02/M03 A2987 RMK A01 T00241026  RH  069%=      5-min Rain = 0
KCO1 221327Z 16002KT 02/M03 A2987 RMK A01 T00241026  RH  070%=      5-min Rain = 0
KCO1 221328Z 18003KT 02/M03 A2988 RMK A01 T00231025  RH  070%=      5-min Rain = 0
KCO1 221329Z 19003KT 02/M03 A2988 RMK A01 T00221025  RH  071%=      5-min Rain = 0
KCO1 221330Z 19004KT 02/M03 A2988 RMK A01 T00221025  RH  071%=      5-min Rain = 0
KCO1 221331Z 19004KT 02/M03 A2988 RMK A01 T00231025  RH  070%=      5-min Rain = 0
KCO1 221332Z 20004KT 02/M03 A2988 RMK A01 T00231026  RH  070%=      5-min Rain = 0
KCO1 221333Z 21005KT 02/M03 A2988 RMK A01 T00211027  RH  071%=      5-min Rain = 0
KCO1 221334Z 21005KT 02/M03 A2988 RMK A01 T00201026  RH  071%=      5-min Rain = 0
KCO1 221335Z 21005KT 02/M03 A2988 RMK A01 T00211026  RH  071%=      5-min Rain = 0
KCO1 221336Z 21005KT 02/M03 A2988 RMK A01 T00231025  RH  071%=      5-min Rain = 0
KCO1 221337Z 20004KT 03/M03 A2988 RMK A01 T00251025  RH  070%=      5-min Rain = 0
KCO1 221338Z 20004KT 03/M03 A2988 RMK A01 T00251026  RH  069%=      5-min Rain = 0
KCO1 221339Z 20004KT 02/M03 A2988 RMK A01 T00241027  RH  069%=      5-min Rain = 0
KCO1 221340Z 20004KT 02/M03 A2988 RMK A01 T00231027  RH  069%=      5-min Rain = 0
KCO1 221341Z 19005KT 02/M03 A2988 RMK A01 T00221027  RH  070%=      5-min Rain = 0
KCO1 221342Z 19005KT 02/M03 A2988 RMK A01 T00221027  RH  070%=      5-min Rain = 0
KCO1 221343Z 19005KT 02/M03 A2988 RMK A01 T00221027  RH  070%=      5-min Rain = 0
KCO1 221344Z 19005KT 02/M03 A2988 RMK A01 T00221026  RH  071%=      5-min Rain = 0
KCO1 221345Z 19006KT 02/M03 A2988 RMK A01 T00211026  RH  071%=      5-min Rain = 0
KCO1 221346Z 20006KT 02/M03 A2988 RMK A01 T00221025  RH  071%=      5-min Rain = 0
KCO1 221347Z 20006KT 02/M02 A2989 RMK A01 T00241024  RH  070%=      5-min Rain = 0
KCO1 221348Z 20006KT 03/M02 A2989 RMK A01 T00271024  RH  069%=      5-min Rain = 0
KCO1 221349Z 21005KT 03/M03 A2989 RMK A01 T00281025  RH  068%=      5-min Rain = 0
KCO1 221350Z 20005KT 03/M03 A2989 RMK A01 T00291025  RH  068%=      5-min Rain = 0
KCO1 221351Z 21005KT 03/M03 A2989 RMK A01 T00291026  RH  068%=      5-min Rain = 0
KCO1 221352Z 22005KT 03/M03 A2989 RMK A01 T00291026  RH  067%=      5-min Rain = 0
KCO1 221353Z 21004KT 03/M03 A2989 RMK A01 T00301026  RH  067%=      5-min Rain = 0
KCO1 221354Z 21004KT 03/M03 A2989 RMK A01 T00321026  RH  066%=      5-min Rain = 0
KCO1 221355Z 22004KT 03/M03 A2989 RMK A01 T00331027  RH  065%=      5-min Rain = 0
KCO1 221356Z 22005KT 03/M03 A2989 RMK A01 T00341027  RH  064%=      5-min Rain = 0
KCO1 221357Z 22004KT 04/M03 A2989 RMK A01 T00351027  RH  064%=      5-min Rain = 0
KCO1 221358Z 22004KT 04/M03 A2989 RMK A01 T00351027  RH  064%=      5-min Rain = 0
KCO1 221359Z 22004KT 04/M03 A2989 RMK A01 T00351028  RH  063%=      5-min Rain = 0
KCO1 221400Z 23004KT 04/M03 A2989 RMK A01 T00361027  RH  063%=      5-min Rain = 0
KCO1 221401Z 23004KT 04/M03 A2989 RMK A01 T00361028  RH  063%=      5-min Rain = 0
KCO1 221402Z 24003KT 04/M03 A2989 RMK A01 T00361028  RH  063%=      5-min Rain = 0
KCO1 221403Z 23003KT 04/M03 A2989 RMK A01 T00361028  RH  063%=      5-min Rain = 0
KCO1 221404Z 23004KT 04/M03 A299 RMK A01 T00371027  RH  063%=      5-min Rain = 0
KCO1 221405Z 23004KT 04/M03 A299 RMK A01 T00371028  RH  063%=      5-min Rain = 0
KCO1 221406Z 23004KT 04/M03 A299 RMK A01 T00371028  RH  062%=      5-min Rain = 0
KCO1 221407Z 24004KT 04/M03 A299 RMK A01 T00381027  RH  062%=      5-min Rain = 0
KCO1 221408Z 24004KT 04/M03 A299 RMK A01 T00391026  RH  062%=      5-min Rain = 0
KCO1 221409Z 24004KT 04/M03 A299 RMK A01 T00401026  RH  062%=      5-min Rain = 0
KCO1 221410Z 23004KT 04/M03 A299 RMK A01 T00411026  RH  061%=      5-min Rain = 0
KCO1 221411Z 23003KT 04/M03 A299 RMK A01 T00421026  RH  061%=      5-min Rain = 0
KCO1 221412Z 23003KT 04/M03 A299 RMK A01 T00441025  RH  061%=      5-min Rain = 0
KCO1 221413Z 23003KT 05/M02 A299 RMK A01 T00451024  RH  061%=      5-min Rain = 0
KCO1 221414Z 23005KT 05/M03 A299 RMK A01 T00461025  RH  060%=      5-min Rain = 0
KCO1 221415Z 22005KT 05/M03 A299 RMK A01 T00471025  RH  060%=      5-min Rain = 0
KCO1 221416Z 22004KT 05/M03 A299 RMK A01 T00481025  RH  059%=      5-min Rain = 0
KCO1 221417Z 22004KT 05/M03 A299 RMK A01 T00491025  RH  059%=      5-min Rain = 0
KCO1 221418Z 22004KT 05/M02 A299 RMK A01 T00501024  RH  059%=      5-min Rain = 0
KCO1 221419Z 22004KT 05/M02 A299 RMK A01 T00501023  RH  059%=      5-min Rain = 0
KCO1 221420Z 22004KT 05/M02 A299 RMK A01 T00511022  RH  059%=      5-min Rain = 0
KCO1 221421Z 22005KT 05/M02 A299 RMK A01 T00531021  RH  059%=      5-min Rain = 0
KCO1 221422Z 22005KT 06/M02 A299 RMK A01 T00551019  RH  059%=      5-min Rain = 0
KCO1 221423Z 23005KT 06/M02 A299 RMK A01 T00581019  RH  058%=      5-min Rain = 0
KCO1 221424Z 24004KT 06/M02 A299 RMK A01 T00591021  RH  056%=      5-min Rain = 0
KCO1 221425Z 25004KT 06/M02 A299 RMK A01 T00611020  RH  056%=      5-min Rain = 0
KCO1 221426Z 24005KT 06/M02 A299 RMK A01 T00621020  RH  056%=      5-min Rain = 0
KCO1 221427Z 24004KT 06/M02 A299 RMK A01 T00631021  RH  055%=      5-min Rain = 0
KCO1 221428Z 24004KT 06/M02 A299 RMK A01 T00641020  RH  055%=      5-min Rain = 0
KCO1 221429Z 25005KT 06/M02 A299 RMK A01 T00641022  RH  054%=      5-min Rain = 0
KCO1 221430Z 25004KT 07/M02 A299 RMK A01 T00651023  RH  053%=      5-min Rain = 0
KCO1 221431Z 26005KT 07/M02 A299 RMK A01 T00651024  RH  053%=      5-min Rain = 0
KCO1 221432Z 25006KT 07/M02 A2991 RMK A01 T00671023  RH  053%=      5-min Rain = 0
KCO1 221433Z 24008KT 07/M02 A2991 RMK A01 T00681022  RH  053%=      5-min Rain = 0
KCO1 221434Z 25009KT 07/M02 A2991 RMK A01 T00691023  RH  052%=      5-min Rain = 0
KCO1 221435Z 24009KT 07/M03 A2991 RMK A01 T00681025  RH  052%=      5-min Rain = 0
KCO1 221436Z 24008KT 07/M03 A2991 RMK A01 T00671025  RH  052%=      5-min Rain = 0
KCO1 221437Z 23007KT 07/M03 A2991 RMK A01 T00671025  RH  052%=      5-min Rain = 0
KCO1 221438Z 23008KT 07/M02 A2991 RMK A01 T00671024  RH  052%=      5-min Rain = 0
KCO1 221439Z 23008KT 07/M02 A2991 RMK A01 T00671024  RH  052%=      5-min Rain = 0
KCO1 221440Z 23008KT 07/M02 A2991 RMK A01 T00681024  RH  052%=      5-min Rain = 0
KCO1 221441Z 23007KT 07/M03 A2991 RMK A01 T00681025  RH  051%=      5-min Rain = 0
KCO1 221442Z 25007KT 07/M03 A2991 RMK A01 T00691025  RH  051%=      5-min Rain = 0
KCO1 221443Z 24006KT 07/M02 A2991 RMK A01 T00691024  RH  051%=      5-min Rain = 0
KCO1 221444Z 23006KT 07/M02 A2991 RMK A01 T00701024  RH  051%=      5-min Rain = 0
KCO1 221445Z 23005KT 07/M02 A2991 RMK A01 T00701024  RH  051%=      5-min Rain = 0
KCO1 221446Z 22005KT 07/M02 A2991 RMK A01 T00701024  RH  051%=      5-min Rain = 0
KCO1 221447Z 23005KT 07/M02 A2991 RMK A01 T00701024  RH  051%=      5-min Rain = 0
KCO1 221448Z 23004KT 07/M02 A2991 RMK A01 T00711023  RH  051%=      5-min Rain = 0
KCO1 221449Z 23004KT 07/M02 A2991 RMK A01 T00711023  RH  051%=      5-min Rain = 0
KCO1 221450Z 24003KT 07/M02 A2991 RMK A01 T00721022  RH  051%=      5-min Rain = 0
KCO1 221451Z 24003KT 07/M02 A2991 RMK A01 T00731022  RH  051%=      5-min Rain = 0
KCO1 221452Z 25003KT 07/M02 A2991 RMK A01 T00731023  RH  051%=      5-min Rain = 0
KCO1 221453Z 26003KT 07/M02 A2991 RMK A01 T00731022  RH  051%=      5-min Rain = 0
KCO1 221454Z 26002KT 07/M02 A2991 RMK A01 T00741021  RH  051%=      5-min Rain = 0
KCO1 221455Z 26003KT 08/M02 A2991 RMK A01 T00751021  RH  051%=      5-min Rain = 0
KCO1 221456Z 27003KT 08/M02 A2991 RMK A01 T00751021  RH  051%=      5-min Rain = 0
KCO1 221457Z 27004KT 08/M02 A2991 RMK A01 T00761019  RH  051%=      5-min Rain = 0
KCO1 221458Z 27003KT 08/M02 A2991 RMK A01 T00771020  RH  050%=      5-min Rain = 0
KCO1 221459Z 27003KT 08/M02 A2991 RMK A01 T00771020  RH  050%=      5-min Rain = 0
KCO1 221500Z 28003KT 08/M02 A2991 RMK A01 T00781020  RH  050%=      5-min Rain = 0
KCO1 221501Z 27003KT 08/M02 A2991 RMK A01 T00781020  RH  050%=      5-min Rain = 0
KCO1 221502Z 28003KT 08/M02 A2991 RMK A01 T00781020  RH  050%=      5-min Rain = 0
KCO1 221503Z 27003KT 08/M02 A2991 RMK A01 T00791018  RH  050%=      5-min Rain = 0
KCO1 221504Z 26002KT 08/M02 A2991 RMK A01 T00801020  RH  049%=      5-min Rain = 0
KCO1 221505Z 28002KT 08/M02 A2991 RMK A01 T00801020  RH  049%=      5-min Rain = 0
KCO1 221506Z 29002KT 08/M02 A2991 RMK A01 T00811019  RH  050%=      5-min Rain = 0
KCO1 221507Z 29003KT 08/M02 A2991 RMK A01 T00821018  RH  049%=      5-min Rain = 0
KCO1 221508Z 27003KT 08/M02 A2991 RMK A01 T00821020  RH  049%=      5-min Rain = 0
KCO1 221509Z 27003KT 08/M02 A2991 RMK A01 T00831019  RH  049%=      5-min Rain = 0
KCO1 221510Z 26003KT 08/M02 A2991 RMK A01 T00831020  RH  048%=      5-min Rain = 0
KCO1 221511Z 26003KT 08/M02 A2991 RMK A01 T00831022  RH  048%=      5-min Rain = 0
KCO1 221512Z 25003KT 08/M02 A2991 RMK A01 T00831021  RH  048%=      5-min Rain = 0
KCO1 221513Z 24003KT 08/M02 A2991 RMK A01 T00831021  RH  048%=      5-min Rain = 0
KCO1 221514Z 24003KT 08/M02 A299 RMK A01 T00841021  RH  048%=      5-min Rain = 0
KCO1 221515Z 24003KT 09/M02 A299 RMK A01 T00851019  RH  048%=      5-min Rain = 0
KCO1 221516Z 23002KT 09/M02 A299 RMK A01 T00871019  RH  047%=      5-min Rain = 0
KCO1 221517Z 23003KT 09/M02 A299 RMK A01 T00891018  RH  047%=      5-min Rain = 0
KCO1 221518Z 24003KT 09/M02 A299 RMK A01 T00911018  RH  046%=      5-min Rain = 0
KCO1 221519Z 23004KT 09/M02 A299 RMK A01 T00921021  RH  045%=      5-min Rain = 0
KCO1 221520Z 22003KT 09/M02 A299 RMK A01 T00931021  RH  045%=      5-min Rain = 0
KCO1 221521Z 21003KT 09/M02 A299 RMK A01 T00941019  RH  045%=      5-min Rain = 0
KCO1 221522Z 22004KT 10/M02 A299 RMK A01 T00951019  RH  045%=      5-min Rain = 0
KCO1 221523Z 22003KT 10/M02 A299 RMK A01 T00971020  RH  044%=      5-min Rain = 0
KCO1 221524Z 22004KT 10/M02 A299 RMK A01 T00981021  RH  043%=      5-min Rain = 0
KCO1 221525Z 22004KT 10/M02 A299 RMK A01 T01011020  RH  043%=      5-min Rain = 0
KCO1 221526Z 21004KT 10/M02 A299 RMK A01 T01021020  RH  042%=      5-min Rain = 0
KCO1 221527Z 21003KT 10/M02 A299 RMK A01 T01041021  RH  042%=      5-min Rain = 0
KCO1 221528Z 20003KT 11/M02 A299 RMK A01 T01051020  RH  042%=      5-min Rain = 0
KCO1 221529Z 20004KT 11/M02 A299 RMK A01 T01061020  RH  041%=      5-min Rain = 0
KCO1 221530Z 21003KT 11/M02 A299 RMK A01 T01091018  RH  041%=      5-min Rain = 0
KCO1 221531Z 20003KT 11/M02 A299 RMK A01 T01121017  RH  041%=      5-min Rain = 0
KCO1 221532Z 22004KT 11/M02 A299 RMK A01 T01131019  RH  040%=      5-min Rain = 0
KCO1 221533Z 22004KT 11/M02 A299 RMK A01 T01141020  RH  039%=      5-min Rain = 0
KCO1 221534Z 21003KT 11/M02 A299 RMK A01 T01141022  RH  039%=      5-min Rain = 0
KCO1 221535Z 21003KT 12/M02 A299 RMK A01 T01151019  RH  039%=      5-min Rain = 0
KCO1 221536Z 21004KT 12/M02 A299 RMK A01 T01171020  RH  038%=      5-min Rain = 0
KCO1 221537Z 19003KT 12/M03 A299 RMK A01 T01171025  RH  037%=      5-min Rain = 0
KCO1 221538Z 19004KT 12/M02 A299 RMK A01 T01181024  RH  037%=      5-min Rain = 0
KCO1 221539Z 20002KT 12/M02 A299 RMK A01 T01191024  RH  037%=      5-min Rain = 0
KCO1 221540Z 20003KT 12/M03 A299 RMK A01 T01201025  RH  036%=      5-min Rain = 0
KCO1 221541Z 19003KT 12/M03 A299 RMK A01 T01201026  RH  036%=      5-min Rain = 0
KCO1 221542Z 18004KT 12/M03 A299 RMK A01 T01231026  RH  035%=      5-min Rain = 0
KCO1 221543Z 19004KT 12/M03 A299 RMK A01 T01241029  RH  034%=      5-min Rain = 0
KCO1 221544Z 20003KT 13/M03 A299 RMK A01 T01261028  RH  034%=      5-min Rain = 0
KCO1 221545Z 19004KT 13/M03 A299 RMK A01 T01291029  RH  033%=      5-min Rain = 0
KCO1 221546Z 21003KT 13/M03 A299 RMK A01 T01311031  RH  032%=      5-min Rain = 0
KCO1 221547Z 20003KT 13/M03 A299 RMK A01 T01321029  RH  032%=      5-min Rain = 0
KCO1 221548Z 19004KT 13/M03 A299 RMK A01 T01341030  RH  032%=      5-min Rain = 0
KCO1 221549Z 22003KT 14/M03 A2991 RMK A01 T01351033  RH  031%=      5-min Rain = 0
KCO1 221550Z 23002KT 14/M03 A2991 RMK A01 T01361033  RH  031%=      5-min Rain = 0
KCO1 221551Z 23002KT 14/M03 A2991 RMK A01 T01361034  RH  031%=      5-min Rain = 0
KCO1 221552Z 23002KT 14/M04 A2991 RMK A01 T01361037  RH  030%=      5-min Rain = 0
KCO1 221553Z 20002KT 14/M04 A2991 RMK A01 T01361038  RH  030%=      5-min Rain = 0
KCO1 221554Z 24001KT 14/M04 A2991 RMK A01 T01361039  RH  029%=      5-min Rain = 0
KCO1 221555Z 25001KT 14/M04 A2991 RMK A01 T01371037  RH  030%=      5-min Rain = 0
KCO1 221556Z 25001KT 14/M03 A2991 RMK A01 T01391033  RH  030%=      5-min Rain = 0
KCO1 221557Z 27001KT 14/M04 A2991 RMK A01 T01401038  RH  029%=      5-min Rain = 0
KCO1 221558Z 30002KT 14/M04 A2991 RMK A01 T01411038  RH  029%=      5-min Rain = 0
KCO1 221559Z 29003KT 14/M04 A2991 RMK A01 T01421036  RH  029%=      5-min Rain = 0
KCO1 221600Z 28002KT 14/M04 A2991 RMK A01 T01431039  RH  028%=      5-min Rain = 0
KCO1 221601Z 32002KT 14/M04 A2991 RMK A01 T01431037  RH  029%=      5-min Rain = 0
KCO1 221602Z 30002KT 14/M04 A2991 RMK A01 T01441035  RH  029%=      5-min Rain = 0
KCO1 221603Z 27002KT 15/M04 A2991 RMK A01 T01451039  RH  028%=      5-min Rain = 0
KCO1 221604Z 25001KT 15/M04 A2991 RMK A01 T01451043  RH  027%=      5-min Rain = 0
KCO1 221605Z 30001KT 15/M04 A2991 RMK A01 T01451041  RH  027%=      5-min Rain = 0
KCO1 221606Z 30002KT 15/M04 A2991 RMK A01 T01461035  RH  028%=      5-min Rain = 0
KCO1 221607Z 30002KT 15/M04 A2991 RMK A01 T01461036  RH  028%=      5-min Rain = 0
KCO1 221608Z 27003KT 15/M04 A2991 RMK A01 T01461035  RH  028%=      5-min Rain = 0
KCO1 221609Z 26002KT 15/M04 A2991 RMK A01 T01461042  RH  027%=      5-min Rain = 0
KCO1 221610Z 28003KT 15/M04 A2991 RMK A01 T01461042  RH  027%=      5-min Rain = 0
KCO1 221611Z 27004KT 15/M04 A2991 RMK A01 T01461040  RH  027%=      5-min Rain = 0
KCO1 221612Z 28003KT 15/M04 A2991 RMK A01 T01461039  RH  027%=      5-min Rain = 0
KCO1 221613Z 28003KT 15/M04 A2991 RMK A01 T01471039  RH  027%=      5-min Rain = 0
KCO1 221614Z 25000KT 15/M04 A299 RMK A01 T01471042  RH  027%=      5-min Rain = 0
KCO1 221615Z 27003KT 15/M04 A299 RMK A01 T01491040  RH  027%=      5-min Rain = 0
KCO1 221616Z 28003KT 15/M05 A299 RMK A01 T01501052  RH  024%=      5-min Rain = 0
KCO1 221617Z 27002KT 15/M05 A299 RMK A01 T01501051  RH  024%=      5-min Rain = 0
KCO1 221618Z 29001KT 15/M06 A299 RMK A01 T01501056  RH  024%=      5-min Rain = 0
KCO1 221619Z 26003KT 15/M05 A299 RMK A01 T01511052  RH  024%=      5-min Rain = 0
KCO1 221620Z 27004KT 15/M05 A299 RMK A01 T01521047  RH  025%=      5-min Rain = 0
KCO1 221621Z 27003KT 15/M04 A299 RMK A01 T01521044  RH  025%=      5-min Rain = 0
KCO1 221622Z 28002KT 15/M04 A299 RMK A01 T01521042  RH  026%=      5-min Rain = 0
KCO1 221623Z 27002KT 15/M04 A299 RMK A01 T01521041  RH  026%=      5-min Rain = 0
KCO1 221624Z 24001KT 15/M04 A299 RMK A01 T01521041  RH  026%=      5-min Rain = 0
KCO1 221625Z 31003KT 15/M04 A299 RMK A01 T01521039  RH  027%=      5-min Rain = 0
KCO1 221626Z 33002KT 15/M04 A299 RMK A01 T01531039  RH  026%=      5-min Rain = 0
KCO1 221627Z 35002KT 15/M04 A299 RMK A01 T01531041  RH  026%=      5-min Rain = 0
KCO1 221628Z 36002KT 15/M04 A299 RMK A01 T01531039  RH  026%=      5-min Rain = 0
KCO1 221629Z 36004KT 15/M03 A299 RMK A01 T01531030  RH  028%=      5-min Rain = 0
KCO1 221630Z 34006KT 15/M03 A299 RMK A01 T01531025  RH  029%=      5-min Rain = 0
KCO1 221631Z 32005KT 15/M03 A299 RMK A01 T01511029  RH  029%=      5-min Rain = 0
KCO1 221632Z 00005KT 15/M02 A299 RMK A01 T01491024  RH  030%=      5-min Rain = 0
KCO1 221633Z 33004KT 15/M02 A299 RMK A01 T01511020  RH  031%=      5-min Rain = 0
KCO1 221634Z 35005KT 15/M03 A299 RMK A01 T01521026  RH  029%=      5-min Rain = 0
KCO1 221635Z 00004KT 15/M03 A299 RMK A01 T01521028  RH  029%=      5-min Rain = 0
KCO1 221636Z 36003KT 15/M03 A299 RMK A01 T01511032  RH  028%=      5-min Rain = 0
KCO1 221637Z 33003KT 15/M03 A299 RMK A01 T01511033  RH  028%=      5-min Rain = 0
KCO1 221638Z 36003KT 15/M04 A299 RMK A01 T01511035  RH  028%=      5-min Rain = 0
KCO1 221639Z 35002KT 15/M04 A299 RMK A01 T01511038  RH  027%=      5-min Rain = 0
KCO1 221640Z 34003KT 15/M03 A299 RMK A01 T01511034  RH  028%=      5-min Rain = 0
KCO1 221641Z 34005KT 15/M02 A299 RMK A01 T01521024  RH  030%=      5-min Rain = 0
KCO1 221642Z 34006KT 15/M02 A299 RMK A01 T01521023  RH  030%=      5-min Rain = 0
KCO1 221643Z 35006KT 15/M02 A299 RMK A01 T01521022  RH  030%=      5-min Rain = 0
KCO1 221644Z 35004KT 15/M02 A299 RMK A01 T01521022  RH  030%=      5-min Rain = 0
KCO1 221645Z 33005KT 15/M02 A299 RMK A01 T01521022  RH  030%=      5-min Rain = 0
KCO1 221646Z 34006KT 15/M02 A299 RMK A01 T01521023  RH  030%=      5-min Rain = 0
KCO1 221647Z 34005KT 15/M03 A299 RMK A01 T01511026  RH  029%=      5-min Rain = 0
KCO1 221648Z 01003KT 15/M02 A299 RMK A01 T01511024  RH  030%=      5-min Rain = 0
KCO1 221649Z 00004KT 15/M03 A299 RMK A01 T01531025  RH  029%=      5-min Rain = 0
KCO1 221650Z 01003KT 15/M03 A299 RMK A01 T01541030  RH  028%=      5-min Rain = 0
KCO1 221651Z 02003KT 15/M03 A299 RMK A01 T01541030  RH  028%=      5-min Rain = 0
KCO1 221652Z 35003KT 16/M03 A299 RMK A01 T01551027  RH  029%=      5-min Rain = 0
KCO1 221653Z 34003KT 16/M03 A299 RMK A01 T01571027  RH  028%=      5-min Rain = 0
KCO1 221654Z 01005KT 16/M03 A2989 RMK A01 T01581026  RH  028%=      5-min Rain = 0
KCO1 221655Z 01004KT 16/M03 A2989 RMK A01 T01591031  RH  027%=      5-min Rain = 0
KCO1 221656Z 02002KT 16/M03 A2989 RMK A01 T01591034  RH  026%=      5-min Rain = 0
KCO1 221657Z 36004KT 16/M03 A2989 RMK A01 T01591030  RH  027%=      5-min Rain = 0
KCO1 221658Z 02005KT 16/M03 A2989 RMK A01 T01621026  RH  027%=      5-min Rain = 0
KCO1 221659Z 01004KT 16/M03 A2989 RMK A01 T01631029  RH  027%=      5-min Rain = 0
KCO1 221700Z 01003KT 16/M04 A2989 RMK A01 T01631036  RH  025%=      5-min Rain = 0
KCO1 221701Z 03002KT 16/M04 A2989 RMK A01 T01621039  RH  025%=      5-min Rain = 0
KCO1 221702Z 05003KT 16/M04 A2989 RMK A01 T01611041  RH  025%=      5-min Rain = 0
KCO1 221703Z 06001KT 16/M04 A2989 RMK A01 T01621041  RH  025%=      5-min Rain = 0
KCO1 221704Z 01001KT 16/M04 A2989 RMK A01 T01631041  RH  024%=      5-min Rain = 0
KCO1 221705Z 03001KT 16/M04 A2989 RMK A01 T01641042  RH  024%=      5-min Rain = 0
KCO1 221706Z 31001KT 16/M04 A2989 RMK A01 T01641043  RH  024%=      5-min Rain = 0
KCO1 221707Z 07002KT 17/M04 A2989 RMK A01 T01651038  RH  025%=      5-min Rain = 0
KCO1 221708Z 07004KT 17/M05 A2989 RMK A01 T01681046  RH  023%=      5-min Rain = 0
KCO1 221709Z 05002KT 17/M05 A2989 RMK A01 T01691048  RH  022%=      5-min Rain = 0
KCO1 221710Z 03003KT 17/M05 A2989 RMK A01 T01701048  RH  022%=      5-min Rain = 0
KCO1 221711Z 04002KT 17/M05 A2989 RMK A01 T01701047  RH  022%=      5-min Rain = 0
KCO1 221712Z 04003KT 17/M05 A2988 RMK A01 T01711046  RH  022%=      5-min Rain = 0
KCO1 221713Z 03001KT 17/M05 A2988 RMK A01 T01711046  RH  022%=      5-min Rain = 0
KCO1 221714Z 34002KT 17/M05 A2988 RMK A01 T01721048  RH  022%=      5-min Rain = 0
KCO1 221715Z 32003KT 17/M05 A2988 RMK A01 T01721050  RH  022%=      5-min Rain = 0
KCO1 221716Z 30002KT 17/M05 A2988 RMK A01 T01691052  RH  022%=      5-min Rain = 0
KCO1 221717Z 29001KT 17/M05 A2988 RMK A01 T01691047  RH  023%=      5-min Rain = 0
KCO1 221718Z 21001KT 17/M04 A2988 RMK A01 T01701043  RH  023%=      5-min Rain = 0
KCO1 221719Z 05000KT 17/M05 A2988 RMK A01 T01721046  RH  022%=      5-min Rain = 0
KCO1 221720Z 01001KT 17/M05 A2988 RMK A01 T01731050  RH  021%=      5-min Rain = 0
KCO1 221721Z 04002KT 17/M05 A2988 RMK A01 T01731047  RH  022%=      5-min Rain = 0
KCO1 221722Z 03004KT 17/M05 A2988 RMK A01 T01731048  RH  022%=      5-min Rain = 0
KCO1 221723Z 00003KT 17/M05 A2988 RMK A01 T01721050  RH  022%=      5-min Rain = 0
KCO1 221724Z 31001KT 17/M05 A2988 RMK A01 T01711050  RH  022%=      5-min Rain = 0
KCO1 221725Z 26002KT 17/M05 A2988 RMK A01 T01701050  RH  022%=      5-min Rain = 0
KCO1 221726Z 31003KT 17/M05 A2988 RMK A01 T01711045  RH  023%=      5-min Rain = 0
KCO1 221727Z 06001KT 17/M05 A2988 RMK A01 T01731047  RH  022%=      5-min Rain = 0
KCO1 221728Z 02001KT 17/M04 A2988 RMK A01 T01741044  RH  022%=      5-min Rain = 0
KCO1 221729Z 07003KT 18/M04 A2988 RMK A01 T01771040  RH  022%=      5-min Rain = 0
KCO1 221730Z 08004KT 18/M04 A2988 RMK A01 T01811039  RH  022%=      5-min Rain = 0
KCO1 221731Z 08004KT 18/M04 A2988 RMK A01 T01821041  RH  022%=      5-min Rain = 0
KCO1 221732Z 09007KT 18/M04 A2988 RMK A01 T01831041  RH  021%=      5-min Rain = 0
KCO1 221733Z 09004KT 18/M04 A2988 RMK A01 T01821044  RH  021%=      5-min Rain = 0
KCO1 221734Z 10002KT 18/M05 A2987 RMK A01 T01811045  RH  021%=      5-min Rain = 0
KCO1 221735Z 08002KT 18/M04 A2987 RMK A01 T01821042  RH  021%=      5-min Rain = 0
KCO1 221736Z 12001KT 18/M04 A2987 RMK A01 T01831039  RH  022%=      5-min Rain = 0
KCO1 221737Z 22001KT 19/M04 A2987 RMK A01 T01851043  RH  021%=      5-min Rain = 0
KCO1 221738Z 04003KT 19/M04 A2987 RMK A01 T01861042  RH  021%=      5-min Rain = 0
KCO1 221739Z 03005KT 19/M04 A2987 RMK A01 T01861040  RH  021%=      5-min Rain = 0
KCO1 221740Z 06003KT 19/M04 A2987 RMK A01 T01851041  RH  021%=      5-min Rain = 0
KCO1 221741Z 09005KT 19/M04 A2987 RMK A01 T01851040  RH  021%=      5-min Rain = 0
KCO1 221742Z 08005KT 19/M04 A2987 RMK A01 T01851043  RH  021%=      5-min Rain = 0
KCO1 221743Z 10003KT 18/M05 A2987 RMK A01 T01831045  RH  021%=      5-min Rain = 0
KCO1 221744Z 08004KT 18/M05 A2987 RMK A01 T01831045  RH  021%=      5-min Rain = 0
KCO1 221745Z 06003KT 18/M04 A2987 RMK A01 T01821044  RH  021%=      5-min Rain = 0
KCO1 221746Z 06004KT 18/M04 A2987 RMK A01 T01821043  RH  021%=      5-min Rain = 0
KCO1 221747Z 06003KT 18/M04 A2987 RMK A01 T01831042  RH  021%=      5-min Rain = 0
KCO1 221748Z 05001KT 18/M04 A2987 RMK A01 T01831044  RH  021%=      5-min Rain = 0
KCO1 221749Z 07001KT 19/M04 A2986 RMK A01 T01851039  RH  022%=      5-min Rain = 0
KCO1 221750Z 01003KT 19/M04 A2986 RMK A01 T01861040  RH  021%=      5-min Rain = 0
KCO1 221751Z 01004KT 19/M04 A2986 RMK A01 T01871040  RH  021%=      5-min Rain = 0
KCO1 221752Z 01003KT 19/M04 A2986 RMK A01 T01851043  RH  021%=      5-min Rain = 0
KCO1 221753Z 00004KT 18/M04 A2986 RMK A01 T01841039  RH  022%=      5-min Rain = 0
KCO1 221754Z 04004KT 19/M04 A2986 RMK A01 T01851038  RH  022%=      5-min Rain = 0
KCO1 221755Z 06004KT 19/M04 A2986 RMK A01 T01871039  RH  021%=      5-min Rain = 0
KCO1 221756Z 04004KT 19/M04 A2986 RMK A01 T01901035  RH  021%=      5-min Rain = 0
KCO1 221757Z 02006KT 19/M04 A2986 RMK A01 T01911039  RH  021%=      5-min Rain = 0
KCO1 221758Z 02005KT 19/M04 A2986 RMK A01 T01901041  RH  021%=      5-min Rain = 0
KCO1 221759Z 36003KT 19/M04 A2986 RMK A01 T01871041  RH  021%=      5-min Rain = 0
KCO1 221800Z 04002KT 19/M04 A2986 RMK A01 T01871041  RH  021%=      5-min Rain = 0
KCO1 221801Z 04005KT 19/M04 A2986 RMK A01 T01881037  RH  021%=      5-min Rain = 0
KCO1 221802Z 05004KT 19/M04 A2986 RMK A01 T01911035  RH  021%=      5-min Rain = 0
KCO1 221803Z 08004KT 19/M04 A2986 RMK A01 T01921036  RH  021%=      5-min Rain = 0
KCO1 221804Z 05003KT 19/M04 A2986 RMK A01 T01941036  RH  021%=      5-min Rain = 0
KCO1 221805Z 03002KT 20/M03 A2986 RMK A01 T01951034  RH  021%=      5-min Rain = 0
KCO1 221806Z 00002KT 20/M04 A2986 RMK A01 T01961035  RH  021%=      5-min Rain = 0
KCO1 221807Z 02001KT 20/M04 A2986 RMK A01 T01961039  RH  020%=      5-min Rain = 0
KCO1 221808Z 07005KT 20/M04 A2986 RMK A01 T01961038  RH  020%=      5-min Rain = 0
KCO1 221809Z 06003KT 20/M04 A2986 RMK A01 T01961037  RH  020%=      5-min Rain = 0
KCO1 221810Z 03004KT 20/M04 A2985 RMK A01 T01961037  RH  020%=      5-min Rain = 0
KCO1 221811Z 06004KT 20/M04 A2985 RMK A01 T01951038  RH  020%=      5-min Rain = 0
KCO1 221812Z 07005KT 20/M04 A2985 RMK A01 T01951037  RH  021%=      5-min Rain = 0
KCO1 221813Z 07003KT 20/M04 A2985 RMK A01 T01951035  RH  021%=      5-min Rain = 0
KCO1 221814Z 06004KT 20/M03 A2985 RMK A01 T01981032  RH  021%=      5-min Rain = 0
KCO1 221815Z 06004KT 20/M03 A2985 RMK A01 T01991032  RH  021%=      5-min Rain = 0
KCO1 221816Z 05004KT 20/M04 A2985 RMK A01 T01991036  RH  020%=      5-min Rain = 0
KCO1 221817Z 05002KT 20/M04 A2985 RMK A01 T01971038  RH  020%=      5-min Rain = 0
KCO1 221818Z 07002KT 20/M04 A2985 RMK A01 T01961036  RH  021%=      5-min Rain = 0
KCO1 221819Z 05001KT 20/M04 A2985 RMK A01 T01961037  RH  020%=      5-min Rain = 0
KCO1 221820Z 06002KT 20/M04 A2985 RMK A01 T01971036  RH  021%=      5-min Rain = 0
KCO1 221821Z 05001KT 20/M04 A2985 RMK A01 T01981038  RH  020%=      5-min Rain = 0
KCO1 221822Z 02002KT 20/M04 A2985 RMK A01 T01981038  RH  020%=      5-min Rain = 0
KCO1 221823Z 02003KT 20/M04 A2985 RMK A01 T01981036  RH  020%=      5-min Rain = 0
KCO1 221824Z 35001KT 20/M04 A2985 RMK A01 T01971038  RH  020%=      5-min Rain = 0
KCO1 221825Z 04003KT 20/M03 A2985 RMK A01 T01961034  RH  021%=      5-min Rain = 0
KCO1 221826Z 03004KT 20/M04 A2985 RMK A01 T01971035  RH  021%=      5-min Rain = 0
KCO1 221827Z 05004KT 20/M03 A2985 RMK A01 T01991031  RH  021%=      5-min Rain = 0
KCO1 221828Z 03004KT 20/M03 A2985 RMK A01 T02011033  RH  020%=      5-min Rain = 0
KCO1 221829Z 01003KT 20/M04 A2985 RMK A01 T02001036  RH  020%=      5-min Rain = 0
KCO1 221830Z 04002KT 20/M03 A2985 RMK A01 T02001031  RH  021%=      5-min Rain = 0
KCO1 221831Z 04004KT 20/M04 A2984 RMK A01 T02001036  RH  020%=      5-min Rain = 0
KCO1 221832Z 06004KT 20/M03 A2985 RMK A01 T02011033  RH  020%=      5-min Rain = 0
KCO1 221833Z 07003KT 20/M03 A2984 RMK A01 T02031031  RH  021%=      5-min Rain = 0
KCO1 221834Z 08002KT 21/M03 A2984 RMK A01 T02061032  RH  020%=      5-min Rain = 0
KCO1 221835Z 10002KT 21/M03 A2984 RMK A01 T02071033  RH  020%=      5-min Rain = 0
KCO1 221836Z 18001KT 21/M04 A2984 RMK A01 T02071038  RH  019%=      5-min Rain = 0
KCO1 221837Z 33002KT 21/M04 A2984 RMK A01 T02061036  RH  019%=      5-min Rain = 0
KCO1 221838Z 03003KT 21/M03 A2984 RMK A01 T02061033  RH  020%=      5-min Rain = 0
KCO1 221839Z 04004KT 21/M03 A2983 RMK A01 T02071034  RH  020%=      5-min Rain = 0
KCO1 221840Z 03003KT 21/M04 A2983 RMK A01 T02071036  RH  019%=      5-min Rain = 0
KCO1 221841Z 02003KT 21/M03 A2983 RMK A01 T02071034  RH  020%=      5-min Rain = 0
KCO1 221842Z 01002KT 21/M04 A2983 RMK A01 T02081037  RH  019%=      5-min Rain = 0
KCO1 221843Z 03002KT 21/M04 A2983 RMK A01 T02081035  RH  019%=      5-min Rain = 0
KCO1 221844Z 06002KT 21/M04 A2983 RMK A01 T02081039  RH  019%=      5-min Rain = 0
KCO1 221845Z 14004KT 21/M04 A2983 RMK A01 T02081038  RH  019%=      5-min Rain = 0
KCO1 221846Z 15004KT 21/M04 A2983 RMK A01 T02101039  RH  018%=      5-min Rain = 0
KCO1 221847Z 20002KT 21/M04 A2983 RMK A01 T02121037  RH  019%=      5-min Rain = 0
KCO1 221848Z 16007KT 21/M04 A2983 RMK A01 T02131035  RH  019%=      5-min Rain = 0
KCO1 221849Z 16007KT 22/M03 A2983 RMK A01 T02161033  RH  019%=      5-min Rain = 0
KCO1 221850Z 16005KT 22/M04 A2983 RMK A01 T02181035  RH  018%=      5-min Rain = 0
KCO1 221851Z 13004KT 22/M04 A2983 RMK A01 T02181039  RH  017%=      5-min Rain = 0
KCO1 221852Z 11004KT 22/M04 A2983 RMK A01 T02171040  RH  018%=      5-min Rain = 0
KCO1 221853Z 09003KT 21/M04 A2982 RMK A01 T02141040  RH  018%=      5-min Rain = 0
KCO1 221854Z 08002KT 21/M04 A2982 RMK A01 T02141036  RH  018%=      5-min Rain = 0
KCO1 221855Z 17003KT 22/M04 A2982 RMK A01 T02161038  RH  018%=      5-min Rain = 0
KCO1 221856Z 19003KT 22/M04 A2982 RMK A01 T02161039  RH  018%=      5-min Rain = 0
KCO1 221857Z 19006KT 22/M04 A2982 RMK A01 T02161038  RH  018%=      5-min Rain = 0
KCO1 221858Z 19005KT 22/M04 A2982 RMK A01 T02171036  RH  018%=      5-min Rain = 0
KCO1 221859Z 17005KT 22/M04 A2982 RMK A01 T02171038  RH  018%=      5-min Rain = 0
KCO1 221900Z 18004KT 22/M04 A2982 RMK A01 T02151041  RH  018%=      5-min Rain = 0
KCO1 221901Z 18005KT 22/M03 A2982 RMK A01 T02161034  RH  019%=      5-min Rain = 0
KCO1 221902Z 18004KT 22/M04 A2982 RMK A01 T02171038  RH  018%=      5-min Rain = 0
KCO1 221903Z 16002KT 22/M04 A2982 RMK A01 T02171037  RH  018%=      5-min Rain = 0
KCO1 221904Z 21002KT 22/M04 A2982 RMK A01 T02191038  RH  018%=      5-min Rain = 0
KCO1 221905Z 22003KT 22/M04 A2982 RMK A01 T02211036  RH  018%=      5-min Rain = 0
KCO1 221906Z 21004KT 22/M04 A2981 RMK A01 T02221038  RH  017%=      5-min Rain = 0
KCO1 221907Z 23004KT 22/M04 A2981 RMK A01 T02201039  RH  017%=      5-min Rain = 0
KCO1 221908Z 24002KT 22/M04 A2981 RMK A01 T02191039  RH  018%=      5-min Rain = 0
KCO1 221909Z 21001KT 22/M04 A2981 RMK A01 T02171041  RH  017%=      5-min Rain = 0
KCO1 221910Z 20002KT 22/M04 A2981 RMK A01 T02181039  RH  018%=      5-min Rain = 0
KCO1 221911Z 16003KT 22/M04 A2981 RMK A01 T02201038  RH  018%=      5-min Rain = 0
KCO1 221912Z 15005KT 22/M04 A2981 RMK A01 T02221039  RH  017%=      5-min Rain = 0
KCO1 221913Z 15003KT 23/M03 A2981 RMK A01 T02251034  RH  017%=      5-min Rain = 0
KCO1 221914Z 17004KT 23/M04 A2981 RMK A01 T02281036  RH  017%=      5-min Rain = 0
KCO1 221915Z 12005KT 23/M03 A298 RMK A01 T02301032  RH  017%=      5-min Rain = 0
KCO1 221916Z 10002KT 23/M03 A298 RMK A01 T02321033  RH  017%=      5-min Rain = 0
KCO1 221917Z 18004KT 23/M03 A298 RMK A01 T02321034  RH  017%=      5-min Rain = 0
KCO1 221918Z 16002KT 23/M04 A298 RMK A01 T02321037  RH  016%=      5-min Rain = 0
KCO1 221919Z 09001KT 23/M04 A298 RMK A01 T02321038  RH  016%=      5-min Rain = 0
KCO1 221920Z 09002KT 23/M04 A298 RMK A01 T02311036  RH  017%=      5-min Rain = 0
KCO1 221921Z 09004KT 23/M03 A298 RMK A01 T02301034  RH  017%=      5-min Rain = 0
KCO1 221922Z 09002KT 23/M04 A2979 RMK A01 T02271037  RH  017%=      5-min Rain = 0
KCO1 221923Z 07004KT 23/M04 A2979 RMK A01 T02251035  RH  017%=      5-min Rain = 0
KCO1 221924Z 07004KT 23/M03 A2979 RMK A01 T02251034  RH  017%=      5-min Rain = 0
KCO1 221925Z 04008KT 23/M03 A2979 RMK A01 T02261030  RH  018%=      5-min Rain = 0
KCO1 221926Z 05007KT 23/M03 A2979 RMK A01 T02271031  RH  018%=      5-min Rain = 0
KCO1 221927Z 06006KT 23/M03 A2979 RMK A01 T02291031  RH  017%=      5-min Rain = 0
KCO1 221928Z 04006KT 23/M03 A2979 RMK A01 T02281034  RH  017%=      5-min Rain = 0
KCO1 221929Z 05007KT 23/M03 A2979 RMK A01 T02251034  RH  017%=      5-min Rain = 0
KCO1 221930Z 03004KT 22/M04 A2978 RMK A01 T02231035  RH  018%=      5-min Rain = 0
KCO1 221931Z 05005KT 22/M04 A2978 RMK A01 T02221035  RH  018%=      5-min Rain = 0
KCO1 221932Z 09006KT 22/M03 A2978 RMK A01 T02231034  RH  018%=      5-min Rain = 0
KCO1 221933Z 08007KT 22/M04 A2978 RMK A01 T02241035  RH  017%=      5-min Rain = 0
KCO1 221934Z 07009KT 23/M03 A2978 RMK A01 T02251032  RH  018%=      5-min Rain = 0
KCO1 221935Z 08006KT 23/M03 A2978 RMK A01 T02251032  RH  018%=      5-min Rain = 0
KCO1 221936Z 05008KT 23/M03 A2977 RMK A01 T02251031  RH  018%=      5-min Rain = 0
KCO1 221937Z 05007KT 23/M03 A2977 RMK A01 T02261032  RH  018%=      5-min Rain = 0
KCO1 221938Z 03009KT 23/M03 A2977 RMK A01 T02261030  RH  018%=      5-min Rain = 0
KCO1 221939Z 03007KT 23/M03 A2977 RMK A01 T02261031  RH  018%=      5-min Rain = 0
KCO1 221940Z 04005KT 23/M03 A2977 RMK A01 T02261029  RH  018%=      5-min Rain = 0
KCO1 221941Z 05007KT 23/M03 A2977 RMK A01 T02261030  RH  018%=      5-min Rain = 0
KCO1 221942Z 05007KT 23/M03 A2977 RMK A01 T02281029  RH  018%=      5-min Rain = 0
KCO1 221943Z 07010KT 23/M03 A2977 RMK A01 T02311030  RH  017%=      5-min Rain = 0
KCO1 221944Z 06006KT 23/M03 A2976 RMK A01 T02301033  RH  017%=      5-min Rain = 0
KCO1 221945Z 09004KT 23/M03 A2976 RMK A01 T02291032  RH  017%=      5-min Rain = 0
KCO1 221946Z 09007KT 23/M03 A2976 RMK A01 T02301031  RH  017%=      5-min Rain = 0
KCO1 221947Z 08007KT 23/M03 A2976 RMK A01 T02311031  RH  017%=      5-min Rain = 0
KCO1 221948Z 08004KT 23/M03 A2976 RMK A01 T02341026  RH  017%=      5-min Rain = 0
KCO1 221949Z 08004KT 24/M03 A2976 RMK A01 T02371028  RH  017%=      5-min Rain = 0
KCO1 221950Z 08003KT 24/M03 A2976 RMK A01 T02361033  RH  016%=      5-min Rain = 0
KCO1 221951Z 07004KT 24/M03 A2976 RMK A01 T02351031  RH  017%=      5-min Rain = 0
KCO1 221952Z 03007G12KT 23/M03 A2976 RMK A01 T02341028  RH  017%=      5-min Rain = 0
KCO1 221953Z 04010KT 23/M03 A2975 RMK A01 T02341029  RH  017%=      5-min Rain = 0
KCO1 221954Z 04010KT 23/M03 A2975 RMK A01 T02311033  RH  017%=      5-min Rain = 0
KCO1 221955Z 04011KT 23/M03 A2975 RMK A01 T02301029  RH  018%=      5-min Rain = 0
KCO1 221956Z 07008KT 23/M03 A2975 RMK A01 T02301030  RH  017%=      5-min Rain = 0
KCO1 221957Z 08007KT 23/M03 A2975 RMK A01 T02321031  RH  017%=      5-min Rain = 0
KCO1 221958Z 06005KT 23/M03 A2975 RMK A01 T02321033  RH  017%=      5-min Rain = 0
KCO1 221959Z 03006KT 23/M03 A2975 RMK A01 T02321027  RH  018%=      5-min Rain = 0
KCO1 222000Z 04007KT 23/M03 A2975 RMK A01 T02341028  RH  017%=      5-min Rain = 0
KCO1 222001Z 04006KT 23/M03 A2975 RMK A01 T02321027  RH  018%=      5-min Rain = 0
KCO1 222002Z 04008KT 23/M03 A2975 RMK A01 T02341027  RH  017%=      5-min Rain = 0
KCO1 222003Z 04007KT 23/M03 A2974 RMK A01 T02321031  RH  017%=      5-min Rain = 0
KCO1 222004Z 03008KT 23/M03 A2974 RMK A01 T02291033  RH  017%=      5-min Rain = 0
KCO1 222005Z 04010KT 23/M03 A2974 RMK A01 T02301030  RH  017%=      5-min Rain = 0
KCO1 222006Z 03010KT 23/M03 A2974 RMK A01 T02331031  RH  017%=      5-min Rain = 0
KCO1 222007Z 02006KT 23/M03 A2974 RMK A01 T02311033  RH  017%=      5-min Rain = 0
KCO1 222008Z 01005G10KT 23/M04 A2974 RMK A01 T02271035  RH  017%=      5-min Rain = 0
KCO1 222009Z 02009KT 23/M03 A2974 RMK A01 T02261032  RH  018%=      5-min Rain = 0
KCO1 222010Z 05010KT 23/M03 A2974 RMK A01 T02311027  RH  018%=      5-min Rain = 0
KCO1 222011Z 05010KT 23/M03 A2974 RMK A01 T02341030  RH  017%=      5-min Rain = 0
KCO1 222012Z 04007KT 23/M04 A2974 RMK A01 T02331035  RH  017%=      5-min Rain = 0
KCO1 222013Z 04005KT 23/M04 A2974 RMK A01 T02301036  RH  017%=      5-min Rain = 0
KCO1 222014Z 03005KT 23/M04 A2974 RMK A01 T02301036  RH  017%=      5-min Rain = 0
KCO1 222015Z 03004KT 23/M04 A2974 RMK A01 T02301036  RH  017%=      5-min Rain = 0
KCO1 222016Z 03006KT 23/M03 A2974 RMK A01 T02311033  RH  017%=      5-min Rain = 0
KCO1 222017Z 04009KT 23/M03 A2974 RMK A01 T02331030  RH  017%=      5-min Rain = 0
KCO1 222018Z 02008KT 23/M03 A2974 RMK A01 T02331033  RH  017%=      5-min Rain = 0
KCO1 222019Z 02006KT 23/M04 A2973 RMK A01 T02321035  RH  017%=      5-min Rain = 0
KCO1 222020Z 04008KT 23/M03 A2973 RMK A01 T02321030  RH  017%=      5-min Rain = 0
KCO1 222021Z 05010KT 24/M03 A2973 RMK A01 T02371028  RH  017%=      5-min Rain = 0
KCO1 222022Z 05011KT 24/M03 A2973 RMK A01 T02391029  RH  017%=      5-min Rain = 0
KCO1 222023Z 05011KT 24/M03 A2973 RMK A01 T02381034  RH  016%=      5-min Rain = 0
KCO1 222024Z 06010KT 24/M03 A2973 RMK A01 T02381032  RH  016%=      5-min Rain = 0
KCO1 222025Z 07008KT 24/M03 A2973 RMK A01 T02381034  RH  016%=      5-min Rain = 0
KCO1 222026Z 04008KT 24/M03 A2973 RMK A01 T02391031  RH  016%=      5-min Rain = 0
KCO1 222027Z 03009KT 24/M03 A2973 RMK A01 T02391034  RH  016%=      5-min Rain = 0
KCO1 222028Z 03009KT 24/M04 A2972 RMK A01 T02371035  RH  016%=      5-min Rain = 0
KCO1 222029Z 05011KT 24/M03 A2972 RMK A01 T02381030  RH  017%=      5-min Rain = 0
KCO1 222030Z 06009KT 24/M03 A2972 RMK A01 T02391033  RH  016%=      5-min Rain = 0
KCO1 222031Z 04009KT 24/M03 A2972 RMK A01 T02391031  RH  016%=      5-min Rain = 0
KCO1 222032Z 03009KT 24/M03 A2972 RMK A01 T02401032  RH  016%=      5-min Rain = 0
KCO1 222033Z 06008KT 24/M03 A2972 RMK A01 T02411032  RH  016%=      5-min Rain = 0
KCO1 222034Z 08005KT 24/M04 A2972 RMK A01 T02411035  RH  016%=      5-min Rain = 0
KCO1 222035Z 09004KT 24/M04 A2972 RMK A01 T02391035  RH  016%=      5-min Rain = 0
KCO1 222036Z 10005KT 24/M03 A2972 RMK A01 T02401034  RH  016%=      5-min Rain = 0
KCO1 222037Z 11003KT 24/M04 A2972 RMK A01 T02421035  RH  016%=      5-min Rain = 0
KCO1 222038Z 07002KT 24/M04 A2972 RMK A01 T02441035  RH  015%=      5-min Rain = 0
KCO1 222039Z 04006KT 25/M04 A2972 RMK A01 T02461035  RH  015%=      5-min Rain = 0
KCO1 222040Z 06004KT 25/M03 A2972 RMK A01 T02461033  RH  016%=      5-min Rain = 0
KCO1 222041Z 02005KT 25/M03 A2971 RMK A01 T02461030  RH  016%=      5-min Rain = 0
KCO1 222042Z 04007KT 25/M03 A2972 RMK A01 T02471029  RH  016%=      5-min Rain = 0
KCO1 222043Z 02006KT 25/M03 A2972 RMK A01 T02471033  RH  015%=      5-min Rain = 0
KCO1 222044Z 19005KT 25/M04 A2972 RMK A01 T02451035  RH  015%=      5-min Rain = 0
KCO1 222045Z 21007G13KT 25/M05 A2972 RMK A01 T02451046  RH  014%=      5-min Rain = 0
KCO1 222046Z 22019G28KT 25/M06 A2971 RMK A01 T02461063  RH  012%=      5-min Rain = 0
KCO1 222047Z 25012G18KT 25/M07 A2971 RMK A01 T02481067  RH  012%=      5-min Rain = 0
KCO1 222048Z 22013KT 25/M07 A2971 RMK A01 T02491067  RH  012%=      5-min Rain = 0
KCO1 222049Z 20016KT 25/M07 A2971 RMK A01 T02521069  RH  011%=      5-min Rain = 0
KCO1 222050Z 21018KT 26/M07 A2971 RMK A01 T02551068  RH  011%=      5-min Rain = 0
KCO1 222051Z 21014G19KT 26/M07 A2971 RMK A01 T02561071  RH  011%=      5-min Rain = 0
KCO1 222052Z 19018KT 26/M07 A2971 RMK A01 T02561069  RH  011%=      5-min Rain = 0
KCO1 222053Z 21015G23KT 26/M06 A2971 RMK A01 T02581064  RH  011%=      5-min Rain = 0
KCO1 222054Z 21011KT 26/M06 A2971 RMK A01 T02631058  RH  012%=      5-min Rain = 0
KCO1 222055Z 21017KT 26/M06 A2971 RMK A01 T02641062  RH  011%=      5-min Rain = 0
KCO1 222056Z 21018KT 26/M07 A2971 RMK A01 T02611068  RH  011%=      5-min Rain = 0
KCO1 222057Z 21016KT 26/M07 A2971 RMK A01 T02591068  RH  011%=      5-min Rain = 0
KCO1 222058Z 21016G21KT 26/M07 A2971 RMK A01 T02591067  RH  011%=      5-min Rain = 0
KCO1 222059Z 22015KT 26/M07 A2971 RMK A01 T02581071  RH  011%=      5-min Rain = 0
KCO1 222100Z 22014KT 26/M07 A2971 RMK A01 T02561071  RH  011%=      5-min Rain = 0
KCO1 222101Z 20013G21KT 26/M07 A2971 RMK A01 T02551071  RH  011%=      5-min Rain = 0
KCO1 222102Z 19014KT 26/M07 A2971 RMK A01 T02551068  RH  011%=      5-min Rain = 0
KCO1 222103Z 19012KT 26/M07 A2971 RMK A01 T02571070  RH  011%=      5-min Rain = 0
KCO1 222104Z 21013KT 26/M07 A297 RMK A01 T02571067  RH  011%=      5-min Rain = 0
KCO1 222105Z 19011KT 26/M07 A297 RMK A01 T02571069  RH  011%=      5-min Rain = 0
KCO1 222106Z 18013KT 26/M07 A297 RMK A01 T02551070  RH  011%=      5-min Rain = 0
KCO1 222107Z 17017KT 26/M07 A297 RMK A01 T02561066  RH  011%=      5-min Rain = 0
KCO1 222108Z 17019G24KT 26/M07 A297 RMK A01 T02581068  RH  011%=      5-min Rain = 0
KCO1 222109Z 19022G30KT 26/M07 A297 RMK A01 T02581068  RH  011%=      5-min Rain = 0
KCO1 222110Z 20022G28KT 26/M07 A297 RMK A01 T02571069  RH  011%=      5-min Rain = 0
KCO1 222111Z 20019KT 26/M07 A297 RMK A01 T02551072  RH  011%=      5-min Rain = 0
KCO1 222112Z 21010KT 25/M07 A2971 RMK A01 T02541071  RH  011%=      5-min Rain = 0
KCO1 222113Z 22013KT 26/M07 A2971 RMK A01 T02561066  RH  011%=      5-min Rain = 0
KCO1 222114Z 22014KT 26/M07 A297 RMK A01 T02581066  RH  011%=      5-min Rain = 0
KCO1 222115Z 20014KT 26/M07 A297 RMK A01 T02581069  RH  011%=      5-min Rain = 0
KCO1 222116Z 19017KT 26/M07 A2971 RMK A01 T02551067  RH  011%=      5-min Rain = 0
KCO1 222117Z 19021KT 26/M07 A297 RMK A01 T02561066  RH  011%=      5-min Rain = 0
KCO1 222118Z 19018KT 25/M07 A297 RMK A01 T02541066  RH  012%=      5-min Rain = 0
KCO1 222119Z 18017KT 26/M06 A297 RMK A01 T02551061  RH  012%=      5-min Rain = 0
KCO1 222120Z 18017KT 26/M06 A297 RMK A01 T02581063  RH  012%=      5-min Rain = 0
KCO1 222121Z 19017G24KT 26/M06 A297 RMK A01 T02581062  RH  012%=      5-min Rain = 0
KCO1 222122Z 19019KT 26/M06 A297 RMK A01 T02581062  RH  012%=      5-min Rain = 0
KCO1 222123Z 18020KT 26/M06 A297 RMK A01 T02581062  RH  012%=      5-min Rain = 0
KCO1 222124Z 18018KT 26/M06 A297 RMK A01 T02571063  RH  012%=      5-min Rain = 0
KCO1 222125Z 18017KT 26/M06 A297 RMK A01 T02561063  RH  012%=      5-min Rain = 0
KCO1 222126Z 19019G24KT 26/M06 A297 RMK A01 T02561063  RH  012%=      5-min Rain = 0
KCO1 222127Z 19017KT 26/M07 A297 RMK A01 T02551065  RH  011%=      5-min Rain = 0
KCO1 222128Z 19020G27KT 26/M06 A297 RMK A01 T02551064  RH  012%=      5-min Rain = 0
KCO1 222129Z 20019KT 26/M07 A297 RMK A01 T02551065  RH  012%=      5-min Rain = 0
KCO1 222130Z 20016KT 25/M07 A297 RMK A01 T02541066  RH  011%=      5-min Rain = 0
KCO1 222131Z 22016KT 26/M06 A297 RMK A01 T02551064  RH  012%=      5-min Rain = 0
KCO1 222132Z 21013KT 26/M06 A297 RMK A01 T02551063  RH  012%=      5-min Rain = 0
KCO1 222133Z 20015KT 26/M06 A297 RMK A01 T02561063  RH  012%=      5-min Rain = 0
KCO1 222134Z 19015KT 26/M06 A297 RMK A01 T02561064  RH  012%=      5-min Rain = 0
KCO1 222135Z 20016G23KT 26/M06 A297 RMK A01 T02561062  RH  012%=      5-min Rain = 0
KCO1 222136Z 20021KT 26/M06 A297 RMK A01 T02571060  RH  012%=      5-min Rain = 0
KCO1 222137Z 21018KT 26/M06 A297 RMK A01 T02571059  RH  012%=      5-min Rain = 0
KCO1 222138Z 19017KT 26/M06 A297 RMK A01 T02581059  RH  012%=      5-min Rain = 0
KCO1 222139Z 19016KT 26/M06 A297 RMK A01 T02581059  RH  012%=      5-min Rain = 0
KCO1 222140Z 19015KT 26/M06 A297 RMK A01 T02571061  RH  012%=      5-min Rain = 0
KCO1 222141Z 21017G22KT 26/M06 A2969 RMK A01 T02551060  RH  012%=      5-min Rain = 0
KCO1 222142Z 20020G25KT 26/M06 A297 RMK A01 T02551059  RH  012%=      5-min Rain = 0
KCO1 222143Z 20017KT 26/M06 A2969 RMK A01 T02551059  RH  012%=      5-min Rain = 0
KCO1 222144Z 21016KT 26/M06 A2969 RMK A01 T02551059  RH  012%=      5-min Rain = 0
KCO1 222145Z 21013KT 26/M06 A2969 RMK A01 T02551057  RH  012%=      5-min Rain = 0
KCO1 222146Z 20012KT 26/M06 A2969 RMK A01 T02551058  RH  012%=      5-min Rain = 0
KCO1 222147Z 19017KT 26/M06 A2969 RMK A01 T02551057  RH  012%=      5-min Rain = 0
KCO1 222148Z 17015KT 26/M06 A2969 RMK A01 T02561057  RH  012%=      5-min Rain = 0
KCO1 222149Z 17021KT 26/M06 A2969 RMK A01 T02561058  RH  012%=      5-min Rain = 0
KCO1 222150Z 18017KT 26/M06 A2969 RMK A01 T02551061  RH  012%=      5-min Rain = 0
KCO1 222151Z 17017G25KT 26/M06 A2968 RMK A01 T02551058  RH  012%=      5-min Rain = 0
KCO1 222152Z 17024KT 26/M06 A2968 RMK A01 T02571058  RH  012%=      5-min Rain = 0
KCO1 222153Z 19026KT 26/M06 A2968 RMK A01 T02571059  RH  012%=      5-min Rain = 0
KCO1 222154Z 21020G25KT 26/M06 A2969 RMK A01 T02561059  RH  012%=      5-min Rain = 0
KCO1 222155Z 20021G28KT 26/M06 A2969 RMK A01 T02561061  RH  012%=      5-min Rain = 0
KCO1 222156Z 21019KT 25/M06 A2969 RMK A01 T02541061  RH  012%=      5-min Rain = 0
KCO1 222157Z 21016KT 25/M06 A2969 RMK A01 T02521062  RH  012%=      5-min Rain = 0
KCO1 222158Z 21015KT 25/M06 A2969 RMK A01 T02531063  RH  012%=      5-min Rain = 0
KCO1 222159Z 20014KT 25/M06 A2969 RMK A01 T02541063  RH  012%=      5-min Rain = 0
KCO1 222200Z 19015KT 25/M06 A2969 RMK A01 T02541062  RH  012%=      5-min Rain = 0
KCO1 222201Z 21019G26KT 25/M06 A2969 RMK A01 T02531060  RH  012%=      5-min Rain = 0
KCO1 222202Z 21021KT 25/M06 A2968 RMK A01 T02541061  RH  012%=      5-min Rain = 0
KCO1 222203Z 21021KT 25/M06 A2968 RMK A01 T02541062  RH  012%=      5-min Rain = 0
KCO1 222204Z 21016G22KT 25/M06 A2969 RMK A01 T02541062  RH  012%=      5-min Rain = 0
KCO1 222205Z 19017KT 25/M06 A2969 RMK A01 T02541060  RH  012%=      5-min Rain = 0
KCO1 222206Z 20018KT 26/M06 A2968 RMK A01 T02561060  RH  012%=      5-min Rain = 0
KCO1 222207Z 20018KT 26/M06 A2968 RMK A01 T02551062  RH  012%=      5-min Rain = 0
KCO1 222208Z 19017G23KT 26/M06 A2968 RMK A01 T02551061  RH  012%=      5-min Rain = 0
KCO1 222209Z 19019KT 25/M06 A2968 RMK A01 T02541062  RH  012%=      5-min Rain = 0
KCO1 222210Z 21017G23KT 25/M06 A2968 RMK A01 T02541059  RH  012%=      5-min Rain = 0
KCO1 222211Z 22020G26KT 26/M06 A2968 RMK A01 T02551062  RH  012%=      5-min Rain = 0
KCO1 222212Z 21020KT 25/M06 A2968 RMK A01 T02541060  RH  012%=      5-min Rain = 0
KCO1 222213Z 20020G26KT 25/M06 A2968 RMK A01 T02541061  RH  012%=      5-min Rain = 0
KCO1 222214Z 21018G24KT 25/M06 A2969 RMK A01 T02541060  RH  012%=      5-min Rain = 0
KCO1 222215Z 22016KT 26/M06 A2969 RMK A01 T02551058  RH  012%=      5-min Rain = 0
KCO1 222216Z 21016G21KT 26/M06 A2968 RMK A01 T02551061  RH  012%=      5-min Rain = 0
KCO1 222217Z 21019KT 25/M06 A2968 RMK A01 T02541060  RH  012%=      5-min Rain = 0
KCO1 222218Z 22022G27KT 25/M06 A2968 RMK A01 T02531061  RH  012%=      5-min Rain = 0
KCO1 222219Z 22020G26KT 25/M06 A2968 RMK A01 T02511063  RH  012%=      5-min Rain = 0
KCO1 222220Z 21017KT 25/M06 A2968 RMK A01 T02511062  RH  012%=      5-min Rain = 0
KCO1 222221Z 20017G24KT 25/M06 A2968 RMK A01 T02541058  RH  012%=      5-min Rain = 0
KCO1 222222Z 20023KT 26/M06 A2968 RMK A01 T02551059  RH  012%=      5-min Rain = 0
KCO1 222223Z 20022KT 25/M06 A2968 RMK A01 T02531061  RH  012%=      5-min Rain = 0
KCO1 222224Z 21019G25KT 25/M06 A2968 RMK A01 T02521062  RH  012%=      5-min Rain = 0
KCO1 222225Z 21020KT 25/M06 A2968 RMK A01 T02511062  RH  012%=      5-min Rain = 0
KCO1 222226Z 21024KT 25/M06 A2968 RMK A01 T02511061  RH  012%=      5-min Rain = 0
KCO1 222227Z 21024G30KT 25/M06 A2968 RMK A01 T02511062  RH  012%=      5-min Rain = 0
KCO1 222228Z 22021KT 25/M06 A2968 RMK A01 T02511064  RH  012%=      5-min Rain = 0
KCO1 222229Z 22022KT 25/M06 A2968 RMK A01 T02501064  RH  012%=      5-min Rain = 0
KCO1 222230Z 22020KT 25/M07 A2968 RMK A01 T02501065  RH  012%=      5-min Rain = 0
KCO1 222231Z 20022G27KT 25/M06 A2968 RMK A01 T02501064  RH  012%=      5-min Rain = 0
KCO1 222232Z 20022KT 25/M06 A2968 RMK A01 T02501061  RH  012%=      5-min Rain = 0
KCO1 222233Z 20025KT 25/M06 A2968 RMK A01 T02501060  RH  012%=      5-min Rain = 0
KCO1 222234Z 22021G27KT 25/M06 A2968 RMK A01 T02491060  RH  012%=      5-min Rain = 0
KCO1 222235Z 21022KT 25/M06 A2968 RMK A01 T02491060  RH  012%=      5-min Rain = 0
KCO1 222236Z 21020KT 25/M06 A2968 RMK A01 T02491061  RH  012%=      5-min Rain = 0
KCO1 222237Z 21015G20KT 25/M06 A2968 RMK A01 T02491061  RH  012%=      5-min Rain = 0
KCO1 222238Z 21019G24KT 25/M06 A2968 RMK A01 T02511059  RH  012%=      5-min Rain = 0
KCO1 222239Z 22017KT 25/M06 A2969 RMK A01 T02511060  RH  012%=      5-min Rain = 0
KCO1 222240Z 23015G20KT 25/M06 A2968 RMK A01 T02511059  RH  012%=      5-min Rain = 0
KCO1 222241Z 23016G21KT 25/M06 A2968 RMK A01 T02511060  RH  012%=      5-min Rain = 0
KCO1 222242Z 23016G23KT 25/M06 A2968 RMK A01 T02501060  RH  012%=      5-min Rain = 0
KCO1 222243Z 23016G22KT 25/M06 A2968 RMK A01 T02491059  RH  013%=      5-min Rain = 0
KCO1 222244Z 23017G22KT 25/M06 A2968 RMK A01 T02481060  RH  013%=      5-min Rain = 0
KCO1 222245Z 23018KT 25/M06 A2968 RMK A01 T02481059  RH  013%=      5-min Rain = 0
KCO1 222246Z 23018G23KT 25/M06 A2968 RMK A01 T02491059  RH  013%=      5-min Rain = 0
KCO1 222247Z 22019KT 25/M06 A2968 RMK A01 T02491058  RH  013%=      5-min Rain = 0
KCO1 222248Z 21018G23KT 25/M06 A2968 RMK A01 T02491058  RH  013%=      5-min Rain = 0
KCO1 222249Z 21015KT 25/M06 A2968 RMK A01 T02491056  RH  013%=      5-min Rain = 0
KCO1 222250Z 21016KT 25/M06 A2968 RMK A01 T02491056  RH  013%=      5-min Rain = 0
KCO1 222251Z 21013KT 25/M06 A2968 RMK A01 T02491056  RH  013%=      5-min Rain = 0
KCO1 222252Z 23015G22KT 25/M06 A2968 RMK A01 T02501055  RH  013%=      5-min Rain = 0
KCO1 222253Z 23018KT 25/M06 A2968 RMK A01 T02511056  RH  013%=      5-min Rain = 0
KCO1 222254Z 22018KT 25/M06 A2968 RMK A01 T02511056  RH  013%=      5-min Rain = 0
KCO1 222255Z 22016KT 25/M06 A2968 RMK A01 T02501056  RH  013%=      5-min Rain = 0
KCO1 222256Z 21013KT 25/M06 A2968 RMK A01 T02491056  RH  013%=      5-min Rain = 0
KCO1 222257Z 22011KT 25/M06 A2968 RMK A01 T02491056  RH  013%=      5-min Rain = 0
KCO1 222258Z 22015KT 25/M06 A2968 RMK A01 T02491055  RH  013%=      5-min Rain = 0
KCO1 222259Z 21013G19KT 25/M06 A2968 RMK A01 T02501056  RH  013%=      5-min Rain = 0
KCO1 222300Z 22015KT 25/M06 A2968 RMK A01 T02501056  RH  013%=      5-min Rain = 0
KCO1 222301Z 22014KT 25/M06 A2967 RMK A01 T02501057  RH  013%=      5-min Rain = 0
KCO1 222302Z 21018KT 25/M06 A2967 RMK A01 T02511058  RH  012%=      5-min Rain = 0
KCO1 222303Z 20018KT 25/M06 A2967 RMK A01 T02501060  RH  012%=      5-min Rain = 0
KCO1 222304Z 21017KT 25/M06 A2967 RMK A01 T02491060  RH  012%=      5-min Rain = 0
KCO1 222305Z 21015KT 25/M06 A2967 RMK A01 T02481058  RH  013%=      5-min Rain = 0
KCO1 222306Z 22015KT 25/M06 A2967 RMK A01 T02481057  RH  013%=      5-min Rain = 0
KCO1 222307Z 24014KT 25/M06 A2967 RMK A01 T02481056  RH  013%=      5-min Rain = 0
KCO1 222308Z 23012KT 25/M06 A2967 RMK A01 T02481056  RH  013%=      5-min Rain = 0
KCO1 222309Z 23014KT 25/M06 A2967 RMK A01 T02481055  RH  013%=      5-min Rain = 0
KCO1 222310Z 21014KT 25/M06 A2967 RMK A01 T02481055  RH  013%=      5-min Rain = 0
KCO1 222311Z 22014KT 25/M06 A2967 RMK A01 T02481057  RH  013%=      5-min Rain = 0
KCO1 222312Z 22012KT 25/M06 A2967 RMK A01 T02481056  RH  013%=      5-min Rain = 0
KCO1 222313Z 23014KT 25/M06 A2967 RMK A01 T02491058  RH  013%=      5-min Rain = 0
KCO1 222314Z 22013KT 25/M06 A2967 RMK A01 T02481061  RH  012%=      5-min Rain = 0
KCO1 222315Z 21013KT 25/M06 A2967 RMK A01 T02481060  RH  012%=      5-min Rain = 0
KCO1 222316Z 21011KT 25/M06 A2967 RMK A01 T02481059  RH  013%=      5-min Rain = 0
KCO1 222317Z 22011KT 25/M06 A2967 RMK A01 T02491061  RH  012%=      5-min Rain = 0
KCO1 222318Z 20007KT 25/M06 A2967 RMK A01 T02491059  RH  012%=      5-min Rain = 0
KCO1 222319Z 20009KT 25/M06 A2967 RMK A01 T02501057  RH  013%=      5-min Rain = 0
KCO1 222320Z 21013KT 25/M06 A2966 RMK A01 T02511058  RH  013%=      5-min Rain = 0
KCO1 222321Z 22011KT 25/M06 A2967 RMK A01 T02511059  RH  012%=      5-min Rain = 0
KCO1 222322Z 23011KT 25/M06 A2967 RMK A01 T02511057  RH  013%=      5-min Rain = 0
KCO1 222323Z 25014KT 25/M06 A2967 RMK A01 T02521055  RH  013%=      5-min Rain = 0
KCO1 222324Z 24012KT 25/M06 A2967 RMK A01 T02501057  RH  013%=      5-min Rain = 0
KCO1 222325Z 23011G16KT 25/M06 A2967 RMK A01 T02491058  RH  013%=      5-min Rain = 0
KCO1 222326Z 23010KT 25/M06 A2967 RMK A01 T02491058  RH  013%=      5-min Rain = 0
KCO1 222327Z 22008KT 25/M06 A2966 RMK A01 T02491058  RH  013%=      5-min Rain = 0
KCO1 222328Z 22007KT 25/M06 A2966 RMK A01 T02471057  RH  013%=      5-min Rain = 0
KCO1 222329Z 22008KT 25/M06 A2966 RMK A01 T02461057  RH  013%=      5-min Rain = 0
KCO1 222330Z 23011KT 25/M06 A2966 RMK A01 T02461059  RH  013%=      5-min Rain = 0
KCO1 222331Z 23010KT 25/M06 A2966 RMK A01 T02471061  RH  012%=      5-min Rain = 0
KCO1 222332Z 22012KT 25/M06 A2966 RMK A01 T02471063  RH  012%=      5-min Rain = 0
KCO1 222333Z 21017G25KT 25/M06 A2966 RMK A01 T02461063  RH  012%=      5-min Rain = 0
KCO1 222334Z 20019KT 25/M06 A2966 RMK A01 T02451061  RH  013%=      5-min Rain = 0
KCO1 222335Z 18020G27KT 25/M06 A2965 RMK A01 T02461059  RH  013%=      5-min Rain = 0
KCO1 222336Z 16018KT 25/M06 A2966 RMK A01 T02461059  RH  013%=      5-min Rain = 0
KCO1 222337Z 16018G23KT 25/M06 A2966 RMK A01 T02451059  RH  013%=      5-min Rain = 0
KCO1 222338Z 17017KT 25/M06 A2966 RMK A01 T02461058  RH  013%=      5-min Rain = 0
KCO1 222339Z 17017KT 25/M06 A2966 RMK A01 T02461057  RH  013%=      5-min Rain = 0
KCO1 222340Z 16014KT 25/M06 A2966 RMK A01 T02451057  RH  013%=      5-min Rain = 0
KCO1 222341Z 16015KT 25/M06 A2966 RMK A01 T02451056  RH  013%=      5-min Rain = 0
KCO1 222342Z 16015KT 25/M06 A2966 RMK A01 T02451056  RH  013%=      5-min Rain = 0
KCO1 222343Z 16015KT 25/M06 A2966 RMK A01 T02451056  RH  013%=      5-min Rain = 0
KCO1 222344Z 16018KT 25/M06 A2966 RMK A01 T02451056  RH  013%=      5-min Rain = 0
KCO1 222345Z 16015KT 25/M06 A2966 RMK A01 T02451057  RH  013%=      5-min Rain = 0
KCO1 222346Z 16016KT 24/M06 A2966 RMK A01 T02441056  RH  013%=      5-min Rain = 0
KCO1 222347Z 16015KT 24/M06 A2966 RMK A01 T02441055  RH  013%=      5-min Rain = 0
KCO1 222348Z 16015KT 24/M05 A2966 RMK A01 T02441054  RH  013%=      5-min Rain = 0
KCO1 222349Z 16014KT 24/M05 A2966 RMK A01 T02441054  RH  013%=      5-min Rain = 0
KCO1 222350Z 16017G22KT 24/M06 A2966 RMK A01 T02431055  RH  013%=      5-min Rain = 0
KCO1 222351Z 16019KT 24/M06 A2966 RMK A01 T02431055  RH  013%=      5-min Rain = 0
KCO1 222352Z 16014KT 24/M05 A2966 RMK A01 T02421054  RH  013%=      5-min Rain = 0
KCO1 222353Z 16015KT 24/M05 A2966 RMK A01 T02421053  RH  014%=      5-min Rain = 0
KCO1 222354Z 17015KT 24/M05 A2965 RMK A01 T02421051  RH  014%=      5-min Rain = 0
KCO1 222355Z 17016KT 24/M05 A2965 RMK A01 T02411052  RH  014%=      5-min Rain = 0
KCO1 222356Z 17016KT 24/M05 A2965 RMK A01 T02411053  RH  014%=      5-min Rain = 0
KCO1 222357Z 17013KT 24/M05 A2965 RMK A01 T02401053  RH  014%=      5-min Rain = 0
KCO1 222358Z 17011KT 24/M05 A2965 RMK A01 T02401051  RH  014%=      5-min Rain = 0
KCO1 222359Z 17011KT 24/M05 A2965 RMK A01 T02391050  RH  014%=      5-min Rain = 0
KCO1 230000Z 16013KT 24/M05 A2965 RMK A01 T02391051  RH  014%=      5-min Rain = 0
KCO1 230001Z 16013KT 24/M05 A2965 RMK A01 T02391054  RH  014%=      5-min Rain = 0
KCO1 230002Z 16013KT 24/M06 A2965 RMK A01 T02391055  RH  014%=      5-min Rain = 0
KCO1 230003Z 15012KT 24/M06 A2965 RMK A01 T02391055  RH  014%=      5-min Rain = 0
KCO1 230004Z 16012KT 24/M05 A2965 RMK A01 T02381053  RH  014%=      5-min Rain = 0
KCO1 230005Z 16013G18KT 24/M05 A2965 RMK A01 T02381053  RH  014%=      5-min Rain = 0
KCO1 230006Z 16018KT 24/M05 A2965 RMK A01 T02381053  RH  014%=      5-min Rain = 0
KCO1 230007Z 17013G19KT 24/M05 A2965 RMK A01 T02371054  RH  014%=      5-min Rain = 0
KCO1 230008Z 17013KT 24/M05 A2965 RMK A01 T02371053  RH  014%=      5-min Rain = 0
KCO1 230009Z 17013KT 24/M05 A2964 RMK A01 T02361054  RH  014%=      5-min Rain = 0
KCO1 230010Z 17012KT 24/M05 A2964 RMK A01 T02351053  RH  014%=      5-min Rain = 0
KCO1 230011Z 17010KT 23/M05 A2964 RMK A01 T02341053  RH  014%=      5-min Rain = 0
KCO1 230012Z 16013KT 23/M05 A2964 RMK A01 T02331052  RH  014%=      5-min Rain = 0
KCO1 230013Z 15013KT 23/M05 A2964 RMK A01 T02331052  RH  015%=      5-min Rain = 0
KCO1 230014Z 15012KT 23/M05 A2964 RMK A01 T02331053  RH  014%=      5-min Rain = 0
KCO1 230015Z 15013KT 23/M05 A2964 RMK A01 T02331053  RH  014%=      5-min Rain = 0
KCO1 230016Z 15013KT 23/M05 A2964 RMK A01 T02331053  RH  014%=      5-min Rain = 0
KCO1 230017Z 16012KT 23/M05 A2964 RMK A01 T02331054  RH  014%=      5-min Rain = 0
KCO1 230018Z 16011KT 23/M05 A2964 RMK A01 T02331054  RH  014%=      5-min Rain = 0
KCO1 230019Z 16011KT 23/M05 A2964 RMK A01 T02331053  RH  014%=      5-min Rain = 0
KCO1 230020Z 16010KT 23/M05 A2964 RMK A01 T02311053  RH  015%=      5-min Rain = 0
KCO1 230021Z 16012KT 23/M05 A2964 RMK A01 T02311053  RH  015%=      5-min Rain = 0
KCO1 230022Z 16011KT 23/M05 A2964 RMK A01 T02301053  RH  015%=      5-min Rain = 0
KCO1 230023Z 16011KT 23/M05 A2964 RMK A01 T02301054  RH  015%=      5-min Rain = 0
KCO1 230024Z 16012KT 23/M05 A2964 RMK A01 T02301054  RH  015%=      5-min Rain = 0
KCO1 230025Z 17011KT 23/M05 A2964 RMK A01 T02301054  RH  015%=      5-min Rain = 0
KCO1 230026Z 17010KT 23/M05 A2964 RMK A01 T02291054  RH  015%=      5-min Rain = 0
KCO1 230027Z 17014KT 23/M05 A2964 RMK A01 T02281054  RH  015%=      5-min Rain = 0
KCO1 230028Z 16013KT 23/M05 A2964 RMK A01 T02271054  RH  015%=      5-min Rain = 0
KCO1 230029Z 16012KT 23/M05 A2964 RMK A01 T02271053  RH  015%=      5-min Rain = 0
KCO1 230030Z 16013KT 23/M05 A2963 RMK A01 T02261054  RH  015%=      5-min Rain = 0
KCO1 230031Z 16012KT 23/M05 A2963 RMK A01 T02261054  RH  015%=      5-min Rain = 0
KCO1 230032Z 16012KT 23/M05 A2963 RMK A01 T02261054  RH  015%=      5-min Rain = 0
KCO1 230033Z 16011KT 23/M05 A2963 RMK A01 T02251054  RH  015%=      5-min Rain = 0
KCO1 230034Z 16010KT 23/M06 A2963 RMK A01 T02251055  RH  015%=      5-min Rain = 0
KCO1 230035Z 16010KT 22/M05 A2963 RMK A01 T02231054  RH  015%=      5-min Rain = 0
KCO1 230036Z 16011KT 22/M05 A2963 RMK A01 T02221054  RH  015%=      5-min Rain = 0
KCO1 230037Z 16012KT 22/M06 A2963 RMK A01 T02221055  RH  015%=      5-min Rain = 0
KCO1 230038Z 16013KT 22/M05 A2963 RMK A01 T02221054  RH  015%=      5-min Rain = 0
KCO1 230039Z 16013KT 22/M05 A2963 RMK A01 T02221054  RH  015%=      5-min Rain = 0
KCO1 230040Z 16011KT 22/M05 A2963 RMK A01 T02221054  RH  015%=      5-min Rain = 0
KCO1 230041Z 15011G16KT 22/M05 A2963 RMK A01 T02221054  RH  015%=      5-min Rain = 0
KCO1 230042Z 15011KT 22/M06 A2963 RMK A01 T02211055  RH  015%=      5-min Rain = 0
KCO1 230043Z 15011KT 22/M05 A2963 RMK A01 T02211054  RH  015%=      5-min Rain = 0
KCO1 230044Z 15011KT 22/M05 A2963 RMK A01 T02191054  RH  016%=      5-min Rain = 0
KCO1 230045Z 16010KT 22/M05 A2963 RMK A01 T02181054  RH  016%=      5-min Rain = 0
KCO1 230046Z 16011KT 22/M05 A2963 RMK A01 T02171054  RH  016%=      5-min Rain = 0
KCO1 230047Z 15011KT 22/M05 A2963 RMK A01 T02161053  RH  016%=      5-min Rain = 0
KCO1 230048Z 15011KT 22/M05 A2963 RMK A01 T02161054  RH  016%=      5-min Rain = 0
KCO1 230049Z 15010KT 22/M05 A2963 RMK A01 T02151054  RH  016%=      5-min Rain = 0
KCO1 230050Z 15011KT 21/M05 A2963 RMK A01 T02141053  RH  016%=      5-min Rain = 0
KCO1 230051Z 15010KT 21/M05 A2963 RMK A01 T02141053  RH  016%=      5-min Rain = 0
KCO1 230052Z 15012KT 21/M05 A2963 RMK A01 T02141053  RH  016%=      5-min Rain = 0
KCO1 230053Z 15011KT 21/M05 A2963 RMK A01 T02131053  RH  016%=      5-min Rain = 0
KCO1 230054Z 15012KT 21/M05 A2963 RMK A01 T02131053  RH  016%=      5-min Rain = 0
KCO1 230055Z 14010KT 21/M05 A2963 RMK A01 T02131053  RH  016%=      5-min Rain = 0
KCO1 230056Z 14011KT 21/M05 A2963 RMK A01 T02121052  RH  016%=      5-min Rain = 0
KCO1 230057Z 14012KT 21/M05 A2963 RMK A01 T02111052  RH  017%=      5-min Rain = 0
KCO1 230058Z 14012KT 21/M05 A2963 RMK A01 T02111051  RH  017%=      5-min Rain = 0
KCO1 230059Z 14012KT 21/M05 A2963 RMK A01 T02111051  RH  017%=      5-min Rain = 0
KCO1 230100Z 14012KT 21/M05 A2963 RMK A01 T02101051  RH  017%=      5-min Rain = 0
KCO1 230101Z 13012KT 21/M05 A2963 RMK A01 T02101051  RH  017%=      5-min Rain = 0
KCO1 230102Z 12018G25KT 21/M05 A2963 RMK A01 T02091046  RH  018%=      5-min Rain = 0
KCO1 230103Z 12021KT 21/M01 A2963 RMK A01 T02091011  RH  023%=      5-min Rain = 0
KCO1 230104Z 12017G23KT 21/01 A2963 RMK A01 T02080011  RH  027%=      5-min Rain = 0
KCO1 230105Z 13019KT 21/02 A2963 RMK A01 T02060017  RH  028%=      5-min Rain = 0
KCO1 230106Z 12018G23KT 21/02 A2963 RMK A01 T02050021  RH  029%=      5-min Rain = 0
KCO1 230107Z 13016KT 20/02 A2963 RMK A01 T02040023  RH  030%=      5-min Rain = 0
KCO1 230108Z 13017G22KT 20/02 A2964 RMK A01 T02030024  RH  031%=      5-min Rain = 0
KCO1 230109Z 13019G25KT 20/03 A2964 RMK A01 T02020026  RH  031%=      5-min Rain = 0
KCO1 230110Z 13021G26KT 20/03 A2963 RMK A01 T02020029  RH  032%=      5-min Rain = 0
KCO1 230111Z 13018G23KT 20/03 A2963 RMK A01 T02010031  RH  032%=      5-min Rain = 0
KCO1 230112Z 12017KT 20/03 A2963 RMK A01 T02010031  RH  033%=      5-min Rain = 0
KCO1 230113Z 13021G27KT 20/03 A2963 RMK A01 T02000033  RH  033%=      5-min Rain = 0
KCO1 230114Z 12017G23KT 20/03 A2963 RMK A01 T02000034  RH  033%=      5-min Rain = 0
KCO1 230115Z 12016G25KT 20/03 A2963 RMK A01 T01990034  RH  033%=      5-min Rain = 0
KCO1 230116Z 12019KT 20/03 A2963 RMK A01 T01980034  RH  034%=      5-min Rain = 0
KCO1 230117Z 12021G26KT 20/04 A2963 RMK A01 T01980036  RH  034%=      5-min Rain = 0
KCO1 230118Z 13019G24KT 20/04 A2963 RMK A01 T01980038  RH  035%=      5-min Rain = 0
KCO1 230119Z 12023KT 20/04 A2963 RMK A01 T01970039  RH  035%=      5-min Rain = 0
KCO1 230120Z 12023KT 20/04 A2963 RMK A01 T01960040  RH  036%=      5-min Rain = 0
KCO1 230121Z 12020KT 20/04 A2963 RMK A01 T01960042  RH  036%=      5-min Rain = 0
KCO1 230122Z 12018G24KT 20/04 A2963 RMK A01 T01950043  RH  037%=      5-min Rain = 0
KCO1 230123Z 12022KT 19/04 A2963 RMK A01 T01940044  RH  037%=      5-min Rain = 0
KCO1 230124Z 12024KT 19/05 A2963 RMK A01 T01930046  RH  038%=      5-min Rain = 0
KCO1 230125Z 13021KT 19/05 A2963 RMK A01 T01930047  RH  038%=      5-min Rain = 0
KCO1 230126Z 13019KT 19/05 A2963 RMK A01 T01920046  RH  038%=      5-min Rain = 0
KCO1 230127Z 13020KT 19/05 A2963 RMK A01 T01910046  RH  038%=      5-min Rain = 0
KCO1 230128Z 13024KT 19/05 A2963 RMK A01 T01910047  RH  039%=      5-min Rain = 0
KCO1 230129Z 13020KT 19/05 A2963 RMK A01 T01900048  RH  039%=      5-min Rain = 0
KCO1 230130Z 13020KT 19/05 A2963 RMK A01 T01900048  RH  039%=      5-min Rain = 0
KCO1 230131Z 13023KT 19/05 A2963 RMK A01 T01900049  RH  040%=      5-min Rain = 0
KCO1 230132Z 13020G26KT 19/05 A2963 RMK A01 T01890050  RH  040%=      5-min Rain = 0
KCO1 230133Z 13024KT 19/05 A2963 RMK A01 T01890050  RH  040%=      5-min Rain = 0
KCO1 230134Z 13023G28KT 19/05 A2963 RMK A01 T01880050  RH  040%=      5-min Rain = 0
KCO1 230135Z 12022G29KT 19/05 A2963 RMK A01 T01870049  RH  040%=      5-min Rain = 0
KCO1 230136Z 13021G26KT 19/05 A2963 RMK A01 T01870050  RH  040%=      5-min Rain = 0
KCO1 230137Z 13022G27KT 19/05 A2963 RMK A01 T01860050  RH  041%=      5-min Rain = 0
KCO1 230138Z 13024KT 19/05 A2963 RMK A01 T01860050  RH  041%=      5-min Rain = 0
KCO1 230139Z 13019KT 19/05 A2963 RMK A01 T01860050  RH  041%=      5-min Rain = 0
KCO1 230140Z 13021G28KT 19/05 A2963 RMK A01 T01850049  RH  041%=      5-min Rain = 0
KCO1 230141Z 13023KT 18/05 A2963 RMK A01 T01840050  RH  041%=      5-min Rain = 0
KCO1 230142Z 13019G26KT 18/05 A2963 RMK A01 T01840050  RH  041%=      5-min Rain = 0
KCO1 230143Z 13020G28KT 18/05 A2963 RMK A01 T01840050  RH  041%=      5-min Rain = 0
KCO1 230144Z 13019G24KT 18/05 A2963 RMK A01 T01830049  RH  041%=      5-min Rain = 0
KCO1 230145Z 13022KT 18/05 A2963 RMK A01 T01820049  RH  041%=      5-min Rain = 0
KCO1 230146Z 14024G29KT 18/05 A2963 RMK A01 T01820049  RH  041%=      5-min Rain = 0
KCO1 230147Z 13020KT 18/05 A2963 RMK A01 T01820049  RH  041%=      5-min Rain = 0
KCO1 230148Z 14022G28KT 18/05 A2963 RMK A01 T01820048  RH  041%=      5-min Rain = 0
KCO1 230149Z 13022G28KT 18/05 A2963 RMK A01 T01810048  RH  041%=      5-min Rain = 0
KCO1 230150Z 13020KT 18/05 A2963 RMK A01 T01810048  RH  041%=      5-min Rain = 0
KCO1 230151Z 14018KT 18/05 A2963 RMK A01 T01800048  RH  041%=      5-min Rain = 0
KCO1 230152Z 14019KT 18/05 A2963 RMK A01 T01800047  RH  042%=      5-min Rain = 0
KCO1 230153Z 13019G25KT 18/05 A2963 RMK A01 T01790047  RH  042%=      5-min Rain = 0
KCO1 230154Z 13020G25KT 18/05 A2963 RMK A01 T01790047  RH  042%=      5-min Rain = 0
KCO1 230155Z 14021KT 18/05 A2963 RMK A01 T01790047  RH  042%=      5-min Rain = 0
KCO1 230156Z 13021KT 18/05 A2963 RMK A01 T01790047  RH  042%=      5-min Rain = 0
KCO1 230157Z 14022G27KT 18/05 A2964 RMK A01 T01790046  RH  042%=      5-min Rain = 0
KCO1 230158Z 13017G22KT 18/05 A2963 RMK A01 T01790046  RH  041%=      5-min Rain = 0
KCO1 230159Z 13020KT 18/05 A2963 RMK A01 T01780045  RH  041%=      5-min Rain = 0
KCO1 230200Z 14022KT 18/05 A2963 RMK A01 T01770045  RH  041%=      5-min Rain = 0
KCO1 230201Z 14021KT 18/05 A2964 RMK A01 T01780045  RH  042%=      5-min Rain = 0
KCO1 230202Z 13017KT 18/04 A2964 RMK A01 T01770044  RH  041%=      5-min Rain = 0
KCO1 230203Z 13020G26KT 18/04 A2964 RMK A01 T01760044  RH  042%=      5-min Rain = 0
KCO1 230204Z 13021KT 18/04 A2964 RMK A01 T01760044  RH  042%=      5-min Rain = 0
KCO1 230205Z 13020KT 18/05 A2963 RMK A01 T01760045  RH  042%=      5-min Rain = 0
KCO1 230206Z 13018KT 18/04 A2964 RMK A01 T01760044  RH  042%=      5-min Rain = 0
KCO1 230207Z 14020G25KT 18/04 A2964 RMK A01 T01750044  RH  042%=      5-min Rain = 0
KCO1 230208Z 13018KT 18/04 A2964 RMK A01 T01750044  RH  042%=      5-min Rain = 0
KCO1 230209Z 13021KT 17/05 A2963 RMK A01 T01740045  RH  042%=      5-min Rain = 0
KCO1 230210Z 14019KT 17/05 A2963 RMK A01 T01740045  RH  042%=      5-min Rain = 0
KCO1 230211Z 13018G23KT 17/04 A2963 RMK A01 T01730044  RH  042%=      5-min Rain = 0
KCO1 230212Z 13021G26KT 17/05 A2963 RMK A01 T01730045  RH  042%=      5-min Rain = 0
KCO1 230213Z 14020KT 17/05 A2963 RMK A01 T01730045  RH  043%=      5-min Rain = 0
KCO1 230214Z 14018G23KT 17/05 A2963 RMK A01 T01730045  RH  043%=      5-min Rain = 0
KCO1 230215Z 14022G27KT 17/04 A2963 RMK A01 T01720044  RH  043%=      5-min Rain = 0
KCO1 230216Z 14021G27KT 17/05 A2964 RMK A01 T01730045  RH  043%=      5-min Rain = 0
KCO1 230217Z 14017G23KT 17/05 A2964 RMK A01 T01730045  RH  043%=      5-min Rain = 0
KCO1 230218Z 14017KT 17/05 A2964 RMK A01 T01720045  RH  043%=      5-min Rain = 0
KCO1 230219Z 14017KT 17/05 A2964 RMK A01 T01710045  RH  043%=      5-min Rain = 0
KCO1 230220Z 13018KT 17/05 A2964 RMK A01 T01700045  RH  043%=      5-min Rain = 0
KCO1 230221Z 13020G25KT 17/05 A2963 RMK A01 T01700046  RH  044%=      5-min Rain = 0
KCO1 230222Z 13021KT 17/05 A2963 RMK A01 T01700048  RH  044%=      5-min Rain = 0
KCO1 230223Z 14020G25KT 17/05 A2963 RMK A01 T01700049  RH  045%=      5-min Rain = 0
KCO1 230224Z 13017KT 17/05 A2963 RMK A01 T01710050  RH  045%=      5-min Rain = 0
KCO1 230225Z 14025KT 17/05 A2963 RMK A01 T01700051  RH  045%=      5-min Rain = 0
KCO1 230226Z 14020G25KT 17/05 A2964 RMK A01 T01700052  RH  046%=      5-min Rain = 0
KCO1 230227Z 14021G27KT 17/05 A2964 RMK A01 T01700052  RH  046%=      5-min Rain = 0
KCO1 230228Z 14020KT 17/05 A2964 RMK A01 T01700052  RH  046%=      5-min Rain = 0
KCO1 230229Z 14021G26KT 17/05 A2964 RMK A01 T01700053  RH  046%=      5-min Rain = 0
KCO1 230230Z 13022KT 17/05 A2963 RMK A01 T01700054  RH  046%=      5-min Rain = 0
KCO1 230231Z 14019KT 17/05 A2963 RMK A01 T01690053  RH  046%=      5-min Rain = 0
KCO1 230232Z 14020KT 17/05 A2964 RMK A01 T01690054  RH  047%=      5-min Rain = 0
KCO1 230233Z 14023KT 17/06 A2964 RMK A01 T01690055  RH  047%=      5-min Rain = 0
KCO1 230234Z 14023KT 17/06 A2964 RMK A01 T01690055  RH  047%=      5-min Rain = 0
KCO1 230235Z 14024G30KT 17/06 A2964 RMK A01 T01690056  RH  047%=      5-min Rain = 0
KCO1 230236Z 14018G24KT 17/06 A2964 RMK A01 T01690056  RH  047%=      5-min Rain = 0
KCO1 230237Z 14017KT 17/06 A2964 RMK A01 T01690055  RH  047%=      5-min Rain = 0
KCO1 230238Z 14018G24KT 17/06 A2964 RMK A01 T01680055  RH  047%=      5-min Rain = 0
KCO1 230239Z 14020G26KT 17/06 A2964 RMK A01 T01670055  RH  048%=      5-min Rain = 0
KCO1 230240Z 14023G28KT 17/06 A2963 RMK A01 T01670056  RH  048%=      5-min Rain = 0
KCO1 230241Z 14023G29KT 17/06 A2963 RMK A01 T01670056  RH  048%=      5-min Rain = 0
KCO1 230242Z 13022KT 17/06 A2963 RMK A01 T01680056  RH  048%=      5-min Rain = 0
KCO1 230243Z 14023G28KT 17/06 A2963 RMK A01 T01680056  RH  048%=      5-min Rain = 0
KCO1 230244Z 14020KT 17/06 A2963 RMK A01 T01680056  RH  048%=      5-min Rain = 0
KCO1 230245Z 14021G30KT 17/06 A2963 RMK A01 T01670055  RH  048%=      5-min Rain = 0
KCO1 230246Z 14022G27KT 17/06 A2963 RMK A01 T01670056  RH  048%=      5-min Rain = 0
KCO1 230247Z 14024G30KT 17/06 A2963 RMK A01 T01670056  RH  048%=      5-min Rain = 0
KCO1 230248Z 14023G28KT 17/06 A2963 RMK A01 T01670056  RH  048%=      5-min Rain = 0
KCO1 230249Z 14023G29KT 17/06 A2963 RMK A01 T01670057  RH  048%=      5-min Rain = 0
KCO1 230250Z 14020KT 17/06 A2963 RMK A01 T01670057  RH  048%=      5-min Rain = 0
KCO1 230251Z 14023G29KT 17/06 A2963 RMK A01 T01660057  RH  048%=      5-min Rain = 0
KCO1 230252Z 14022KT 17/06 A2963 RMK A01 T01660058  RH  049%=      5-min Rain = 0
KCO1 230253Z 14022G28KT 17/06 A2963 RMK A01 T01660059  RH  049%=      5-min Rain = 0
KCO1 230254Z 14020G25KT 17/06 A2963 RMK A01 T01660059  RH  049%=      5-min Rain = 0
KCO1 230255Z 14020G27KT 17/06 A2963 RMK A01 T01650059  RH  049%=      5-min Rain = 0
KCO1 230256Z 14022G27KT 17/06 A2963 RMK A01 T01650059  RH  049%=      5-min Rain = 0
KCO1 230257Z 14020G26KT 17/06 A2963 RMK A01 T01650059  RH  050%=      5-min Rain = 0
KCO1 230258Z 14021G30KT 17/06 A2963 RMK A01 T01650060  RH  050%=      5-min Rain = 0
KCO1 230259Z 14020G31KT 16/06 A2963 RMK A01 T01640060  RH  050%=      5-min Rain = 0
KCO1 230300Z 14021G26KT 16/06 A2963 RMK A01 T01640061  RH  050%=      5-min Rain = 0
KCO1 230301Z 14023KT 16/06 A2963 RMK A01 T01640061  RH  051%=      5-min Rain = 0
KCO1 230302Z 15018G24KT 16/06 A2963 RMK A01 T01640061  RH  051%=      5-min Rain = 0
KCO1 230303Z 15020G25KT 16/06 A2964 RMK A01 T01640061  RH  051%=      5-min Rain = 0
KCO1 230304Z 15019G24KT 16/06 A2964 RMK A01 T01630062  RH  051%=      5-min Rain = 0
KCO1 230305Z 14020G28KT 16/06 A2963 RMK A01 T01630062  RH  051%=      5-min Rain = 0
KCO1 230306Z 15024G29KT 16/06 A2964 RMK A01 T01630063  RH  051%=      5-min Rain = 0
KCO1 230307Z 15020G25KT 16/06 A2964 RMK A01 T01630063  RH  052%=      5-min Rain = 0
KCO1 230308Z 15018G23KT 16/06 A2964 RMK A01 T01630064  RH  052%=      5-min Rain = 0
KCO1 230309Z 15019G28KT 16/07 A2964 RMK A01 T01630065  RH  052%=      5-min Rain = 0
KCO1 230310Z 15021KT 16/07 A2964 RMK A01 T01620066  RH  053%=      5-min Rain = 0
KCO1 230311Z 14020KT 16/07 A2964 RMK A01 T01620066  RH  053%=      5-min Rain = 0
KCO1 230312Z 15021KT 16/07 A2964 RMK A01 T01620066  RH  053%=      5-min Rain = 0
KCO1 230313Z 15020G26KT 16/07 A2964 RMK A01 T01620067  RH  053%=      5-min Rain = 0
KCO1 230314Z 15022G27KT 16/07 A2964 RMK A01 T01620068  RH  054%=      5-min Rain = 0
KCO1 230315Z 15018KT 16/07 A2964 RMK A01 T01620069  RH  054%=      5-min Rain = 0
KCO1 230316Z 15020KT 16/07 A2964 RMK A01 T01620070  RH  054%=      5-min Rain = 0
KCO1 230317Z 15017KT 16/07 A2964 RMK A01 T01620070  RH  054%=      5-min Rain = 0
KCO1 230318Z 15023KT 16/07 A2964 RMK A01 T01620071  RH  055%=      5-min Rain = 0
KCO1 230319Z 14020G25KT 16/07 A2964 RMK A01 T01620071  RH  055%=      5-min Rain = 0
KCO1 230320Z 15021G28KT 16/07 A2964 RMK A01 T01620072  RH  055%=      5-min Rain = 0
KCO1 230321Z 15021KT 16/07 A2964 RMK A01 T01620073  RH  056%=      5-min Rain = 0
KCO1 230322Z 15023KT 16/07 A2964 RMK A01 T01620074  RH  056%=      5-min Rain = 0
KCO1 230323Z 15022G30KT 16/07 A2964 RMK A01 T01620074  RH  056%=      5-min Rain = 0
KCO1 230324Z 15021KT 16/08 A2964 RMK A01 T01620075  RH  056%=      5-min Rain = 0
KCO1 230325Z 15018KT 16/08 A2964 RMK A01 T01620075  RH  056%=      5-min Rain = 0
KCO1 230326Z 15018G23KT 16/08 A2964 RMK A01 T01620075  RH  057%=      5-min Rain = 0
KCO1 230327Z 15020G26KT 16/08 A2964 RMK A01 T01620076  RH  057%=      5-min Rain = 0
KCO1 230328Z 15018KT 16/08 A2964 RMK A01 T01610077  RH  057%=      5-min Rain = 0
KCO1 230329Z 15021KT 16/08 A2964 RMK A01 T01610077  RH  057%=      5-min Rain = 0
KCO1 230330Z 15020G27KT 16/08 A2964 RMK A01 T01610078  RH  058%=      5-min Rain = 0
KCO1 230331Z 15022KT 16/08 A2964 RMK A01 T01610078  RH  058%=      5-min Rain = 0
KCO1 230332Z 15023G28KT 16/08 A2964 RMK A01 T01610079  RH  058%=      5-min Rain = 0
KCO1 230333Z 16023KT 16/08 A2964 RMK A01 T01620079  RH  058%=      5-min Rain = 0
KCO1 230334Z 15022G29KT 16/08 A2964 RMK A01 T01620080  RH  058%=      5-min Rain = 0
KCO1 230335Z 15019G25KT 16/08 A2964 RMK A01 T01620080  RH  058%=      5-min Rain = 0
KCO1 230336Z 15021G26KT 16/08 A2964 RMK A01 T01620081  RH  059%=      5-min Rain = 0
KCO1 230337Z 15022KT 16/08 A2964 RMK A01 T01620081  RH  059%=      5-min Rain = 0
KCO1 230338Z 15020G25KT 16/08 A2964 RMK A01 T01620082  RH  059%=      5-min Rain = 0
KCO1 230339Z 15019G24KT 16/08 A2964 RMK A01 T01610082  RH  059%=      5-min Rain = 0
KCO1 230340Z 15021G27KT 16/08 A2964 RMK A01 T01610082  RH  059%=      5-min Rain = 0
KCO1 230341Z 15019G24KT 16/08 A2964 RMK A01 T01610082  RH  060%=      5-min Rain = 0
KCO1 230342Z 15020G27KT 16/08 A2965 RMK A01 T01610082  RH  060%=      5-min Rain = 0
KCO1 230343Z 15019G24KT 16/08 A2964 RMK A01 T01600083  RH  060%=      5-min Rain = 0
KCO1 230344Z 15021KT 16/08 A2964 RMK A01 T01600083  RH  060%=      5-min Rain = 0
KCO1 230345Z 15018KT 16/08 A2964 RMK A01 T01600083  RH  060%=      5-min Rain = 0
KCO1 230346Z 15021G28KT 16/08 A2964 RMK A01 T01600083  RH  060%=      5-min Rain = 0
KCO1 230347Z 15020G25KT 16/08 A2964 RMK A01 T01600084  RH  060%=      5-min Rain = 0
KCO1 230348Z 15018G24KT 16/08 A2964 RMK A01 T01600084  RH  060%=      5-min Rain = 0
KCO1 230349Z 15021G26KT 16/08 A2965 RMK A01 T01600084  RH  061%=      5-min Rain = 0
KCO1 230350Z 15020G26KT 16/09 A2965 RMK A01 T01600085  RH  061%=      5-min Rain = 0
KCO1 230351Z 15023G29KT 16/09 A2964 RMK A01 T01600085  RH  061%=      5-min Rain = 0
KCO1 230352Z 15019G24KT 16/09 A2964 RMK A01 T01600085  RH  061%=      5-min Rain = 0
KCO1 230353Z 15021G27KT 16/09 A2964 RMK A01 T01600085  RH  061%=      5-min Rain = 0
KCO1 230354Z 15019G24KT 16/09 A2964 RMK A01 T01590085  RH  061%=      5-min Rain = 0
KCO1 230355Z 15019KT 16/09 A2964 RMK A01 T01590085  RH  061%=      5-min Rain = 0
KCO1 230356Z 15021KT 16/09 A2964 RMK A01 T01590085  RH  061%=      5-min Rain = 0
KCO1 230357Z 15022G28KT 16/09 A2964 RMK A01 T01590085  RH  061%=      5-min Rain = 0
KCO1 230358Z 15021G26KT 16/09 A2965 RMK A01 T01590085  RH  061%=      5-min Rain = 0
KCO1 230359Z 15021KT 16/09 A2965 RMK A01 T01590085  RH  061%=      5-min Rain = 0
KCO1 230400Z 15021KT 16/09 A2965 RMK A01 T01590085  RH  061%=      5-min Rain = 0
KCO1 230401Z 16021KT 16/09 A2965 RMK A01 T01590085  RH  061%=      5-min Rain = 0
KCO1 230402Z 15020KT 16/09 A2965 RMK A01 T01590086  RH  062%=      5-min Rain = 0
KCO1 230403Z 15019KT 16/09 A2965 RMK A01 T01590086  RH  062%=      5-min Rain = 0
KCO1 230404Z 15021G27KT 16/09 A2965 RMK A01 T01590086  RH  062%=      5-min Rain = 0
KCO1 230405Z 15023KT 16/09 A2965 RMK A01 T01590086  RH  062%=      5-min Rain = 0
KCO1 230406Z 15023KT 16/09 A2965 RMK A01 T01590086  RH  062%=      5-min Rain = 0
KCO1 230407Z 15021G27KT 16/09 A2965 RMK A01 T01590086  RH  062%=      5-min Rain = 0
KCO1 230408Z 15021KT 16/09 A2965 RMK A01 T01590086  RH  062%=      5-min Rain = 0
KCO1 230409Z 15020KT 16/09 A2965 RMK A01 T01590086  RH  062%=      5-min Rain = 0
KCO1 230410Z 15020KT 16/09 A2965 RMK A01 T01590086  RH  062%=      5-min Rain = 0
KCO1 230411Z 15019G25KT 16/09 A2965 RMK A01 T01590086  RH  062%=      5-min Rain = 0
KCO1 230412Z 15020KT 16/09 A2965 RMK A01 T01590087  RH  062%=      5-min Rain = 0
KCO1 230413Z 15020KT 16/09 A2965 RMK A01 T01590087  RH  062%=      5-min Rain = 0
KCO1 230414Z 15020KT 16/09 A2965 RMK A01 T01580086  RH  062%=      5-min Rain = 0
KCO1 230415Z 15020G25KT 16/09 A2965 RMK A01 T01580086  RH  062%=      5-min Rain = 0
KCO1 230416Z 15018G25KT 16/09 A2965 RMK A01 T01580087  RH  062%=      5-min Rain = 0
KCO1 230417Z 15022G28KT 16/09 A2965 RMK A01 T01580086  RH  062%=      5-min Rain = 0
KCO1 230418Z 15019G25KT 16/09 A2965 RMK A01 T01580087  RH  063%=      5-min Rain = 0
KCO1 230419Z 15021KT 16/09 A2965 RMK A01 T01580086  RH  062%=      5-min Rain = 0
KCO1 230420Z 15019KT 16/09 A2965 RMK A01 T01580087  RH  063%=      5-min Rain = 0
KCO1 230421Z 15019KT 16/09 A2966 RMK A01 T01570086  RH  063%=      5-min Rain = 0
KCO1 230422Z 15018G26KT 16/09 A2966 RMK A01 T01580087  RH  063%=      5-min Rain = 0
KCO1 230423Z 16021G26KT 16/09 A2966 RMK A01 T01580087  RH  063%=      5-min Rain = 0
KCO1 230424Z 16020KT 16/09 A2967 RMK A01 T01580087  RH  063%=      5-min Rain = 0
KCO1 230425Z 17019G25KT 16/09 A2968 RMK A01 T01590088  RH  063%=      5-min Rain = 0
KCO1 230426Z 20019KT 16/09 A2971 RMK A01 T01590088  RH  063%=      5-min Rain = 0
KCO1 230427Z 24022KT 16/09 A2974 RMK A01 T01590088  RH  063%=      5-min Rain = 0
KCO1 230428Z 24022G28KT 16/09 A2975 RMK A01 T01600087  RH  062%=      5-min Rain = 0
KCO1 230429Z 25023G28KT 16/08 A2975 RMK A01 T01630080  RH  058%=      5-min Rain = 0
KCO1 230430Z 26017G24KT 17/07 A2975 RMK A01 T01660069  RH  053%=      5-min Rain = 0
KCO1 230431Z 27026G36KT 17/05 A2974 RMK A01 T01660050  RH  046%=      5-min Rain = 0
KCO1 230432Z 27027KT 16/02 A2975 RMK A01 T01610021  RH  039%=      5-min Rain = 0
KCO1 230433Z 26026G33KT 16/01 A2976 RMK A01 T01560010  RH  037%=      5-min Rain = 0
KCO1 230434Z 27023G31KT 15/01 A2976 RMK A01 T01520006  RH  037%=      5-min Rain = 0
KCO1 230435Z 27020KT 15/01 A2976 RMK A01 T01500005  RH  037%=      5-min Rain = 0
KCO1 230436Z 27020KT 15/00 A2976 RMK A01 T01480004  RH  037%=      5-min Rain = 0
KCO1 230437Z 27019G25KT 15/00 A2976 RMK A01 T01470003  RH  037%=      5-min Rain = 0
KCO1 230438Z 27022KT 15/00 A2976 RMK A01 T01460002  RH  037%=      5-min Rain = 0
KCO1 230439Z 27023G28KT 15/00 A2976 RMK A01 T01450001  RH  037%=      5-min Rain = 0
KCO1 230440Z 27023G29KT 14/00 A2976 RMK A01 T01440001  RH  037%=      5-min Rain = 0
KCO1 230441Z 28018KT 14/00 A2977 RMK A01 T014400-0  RH  037%=      5-min Rain = 0
KCO1 230442Z 28023G30KT 14/00 A2977 RMK A01 T014300-0  RH  038%=      5-min Rain = 0
KCO1 230443Z 27023G31KT 14/M00 A2977 RMK A01 T01421001  RH  037%=      5-min Rain = 0
KCO1 230444Z 27023G30KT 14/M00 A2977 RMK A01 T01421002  RH  037%=      5-min Rain = 0
KCO1 230445Z 27022KT 14/M00 A2977 RMK A01 T01411002  RH  037%=      5-min Rain = 0
KCO1 230446Z 27024G30KT 14/M00 A2977 RMK A01 T01411003  RH  037%=      5-min Rain = 0
KCO1 230447Z 28027KT 14/M00 A2978 RMK A01 T01411003  RH  037%=      5-min Rain = 0
KCO1 230448Z 27023KT 14/M00 A2978 RMK A01 T01401003  RH  037%=      5-min Rain = 0
KCO1 230449Z 28019KT 14/M00 A2978 RMK A01 T01401003  RH  037%=      5-min Rain = 0
KCO1 230450Z 27019KT 14/M00 A2979 RMK A01 T01401003  RH  038%=      5-min Rain = 0
KCO1 230451Z 28022G28KT 14/M00 A2979 RMK A01 T01391003  RH  038%=      5-min Rain = 0
KCO1 230452Z 27021KT 14/M00 A2979 RMK A01 T01391003  RH  038%=      5-min Rain = 0
KCO1 230453Z 27024G29KT 14/M00 A2979 RMK A01 T01381003  RH  038%=      5-min Rain = 0
KCO1 230454Z 28020G27KT 14/M00 A2979 RMK A01 T01391003  RH  038%=      5-min Rain = 0
KCO1 230455Z 27019G28KT 14/M00 A2979 RMK A01 T01381003  RH  038%=      5-min Rain = 0
KCO1 230456Z 28020KT 14/M00 A298 RMK A01 T01381003  RH  038%=      5-min Rain = 0
KCO1 230457Z 27022KT 14/M00 A298 RMK A01 T01371003  RH  038%=      5-min Rain = 0
KCO1 230458Z 28017KT 14/M00 A298 RMK A01 T01371003  RH  038%=      5-min Rain = 0
KCO1 230459Z 28021KT 14/M00 A298 RMK A01 T01361003  RH  039%=      5-min Rain = 0
KCO1 230500Z 28016KT 14/M00 A298 RMK A01 T01361003  RH  039%=      5-min Rain = 0
KCO1 230501Z 28017KT 14/M00 A298 RMK A01 T01351002  RH  039%=      5-min Rain = 0
KCO1 230502Z 28019KT 14/M00 A298 RMK A01 T01351002  RH  039%=      5-min Rain = 0
KCO1 230503Z 29015G21KT 14/M00 A298 RMK A01 T01351002  RH  039%=      5-min Rain = 0
KCO1 230504Z 29016G25KT 14/M00 A2981 RMK A01 T01351002  RH  039%=      5-min Rain = 0
KCO1 230505Z 29021G26KT 13/M00 A2981 RMK A01 T01341002  RH  039%=      5-min Rain = 0
KCO1 230506Z 29018KT 13/M00 A2981 RMK A01 T01331002  RH  039%=      5-min Rain = 0
KCO1 230507Z 28018KT 13/M00 A2981 RMK A01 T01331002  RH  040%=      5-min Rain = 0
KCO1 230508Z 29019KT 13/M00 A2981 RMK A01 T01321002  RH  040%=      5-min Rain = 0
KCO1 230509Z 29021G26KT 13/M00 A2981 RMK A01 T01321002  RH  040%=      5-min Rain = 0
KCO1 230510Z 29023G29KT 13/M00 A2981 RMK A01 T01301002  RH  040%=      5-min Rain = 0
KCO1 230511Z 29022G27KT 13/M00 A2981 RMK A01 T01301002  RH  040%=      5-min Rain = 0
KCO1 230512Z 28021G26KT 13/M00 A2982 RMK A01 T01291002  RH  040%=      5-min Rain = 0
KCO1 230513Z 28020G26KT 13/M00 A2982 RMK A01 T01281002  RH  041%=      5-min Rain = 0
KCO1 230514Z 28023G28KT 13/M00 A2982 RMK A01 T01281002  RH  041%=      5-min Rain = 0
KCO1 230515Z 28021G27KT 13/M00 A2982 RMK A01 T01271003  RH  041%=      5-min Rain = 0
KCO1 230516Z 28024G31KT 13/M00 A2982 RMK A01 T01261003  RH  041%=      5-min Rain = 0
KCO1 230517Z 28028G33KT 13/M00 A2982 RMK A01 T01251004  RH  041%=      5-min Rain = 0
KCO1 230518Z 28022KT 13/M00 A2982 RMK A01 T01251004  RH  041%=      5-min Rain = 0
KCO1 230519Z 29023KT 12/M00 A2982 RMK A01 T01241004  RH  041%=      5-min Rain = 0
KCO1 230520Z 28025KT 12/M00 A2982 RMK A01 T01241004  RH  041%=      5-min Rain = 0
KCO1 230521Z 28019G24KT 12/M00 A2982 RMK A01 T01231004  RH  041%=      5-min Rain = 0
KCO1 230522Z 29021G28KT 12/M01 A2982 RMK A01 T01221005  RH  041%=      5-min Rain = 0
KCO1 230523Z 29025G36KT 12/M01 A2982 RMK A01 T01211006  RH  041%=      5-min Rain = 0
KCO1 230524Z 29024G29KT 12/M01 A2983 RMK A01 T01201007  RH  041%=      5-min Rain = 0
KCO1 230525Z 29026G37KT 12/M01 A2983 RMK A01 T01191007  RH  042%=      5-min Rain = 0
KCO1 230526Z 29024G34KT 12/M01 A2983 RMK A01 T01181008  RH  042%=      5-min Rain = 0
KCO1 230527Z 28026G31KT 12/M01 A2983 RMK A01 T01181008  RH  042%=      5-min Rain = 0
KCO1 230528Z 29022G29KT 12/M01 A2983 RMK A01 T01171009  RH  042%=      5-min Rain = 0
KCO1 230529Z 29023G30KT 12/M01 A2983 RMK A01 T01161009  RH  042%=      5-min Rain = 0
KCO1 230530Z 30026G32KT 12/M01 A2983 RMK A01 T01151010  RH  042%=      5-min Rain = 0
KCO1 230531Z 29024G30KT 12/M01 A2983 RMK A01 T01151010  RH  042%=      5-min Rain = 0
KCO1 230532Z 29023G28KT 11/M01 A2983 RMK A01 T01141010  RH  042%=      5-min Rain = 0
KCO1 230533Z 29021G27KT 11/M01 A2984 RMK A01 T01141010  RH  042%=      5-min Rain = 0
KCO1 230534Z 29018KT 11/M01 A2984 RMK A01 T01131010  RH  042%=      5-min Rain = 0
KCO1 230535Z 29019G25KT 11/M01 A2984 RMK A01 T01131010  RH  042%=      5-min Rain = 0
KCO1 230536Z 29016G22KT 11/M01 A2985 RMK A01 T01121011  RH  043%=      5-min Rain = 0
KCO1 230537Z 29019KT 11/M01 A2985 RMK A01 T01121010  RH  043%=      5-min Rain = 0
KCO1 230538Z 29026G33KT 11/M01 A2985 RMK A01 T01111011  RH  043%=      5-min Rain = 0
KCO1 230539Z 29025G31KT 11/M01 A2985 RMK A01 T01111012  RH  043%=      5-min Rain = 0
KCO1 230540Z 29023G32KT 11/M01 A2985 RMK A01 T01101012  RH  042%=      5-min Rain = 0
KCO1 230541Z 29021KT 11/M01 A2985 RMK A01 T01101013  RH  043%=      5-min Rain = 0
KCO1 230542Z 29022G28KT 11/M01 A2985 RMK A01 T01091013  RH  043%=      5-min Rain = 0
KCO1 230543Z 28019KT 11/M01 A2985 RMK A01 T01091013  RH  043%=      5-min Rain = 0
KCO1 230544Z 28022G28KT 11/M01 A2985 RMK A01 T01081013  RH  043%=      5-min Rain = 0
KCO1 230545Z 28021G32KT 11/M01 A2985 RMK A01 T01081013  RH  043%=      5-min Rain = 0
KCO1 230546Z 28025G33KT 11/M01 A2985 RMK A01 T01071014  RH  043%=      5-min Rain = 0
KCO1 230547Z 28021G27KT 11/M01 A2985 RMK A01 T01071014  RH  043%=      5-min Rain = 0
KCO1 230548Z 28026G34KT 11/M01 A2985 RMK A01 T01071014  RH  043%=      5-min Rain = 0
KCO1 230549Z 28025G30KT 11/M01 A2985 RMK A01 T01071014  RH  043%=      5-min Rain = 0
KCO1 230550Z 28023G28KT 11/M01 A2986 RMK A01 T01071014  RH  043%=      5-min Rain = 0
KCO1 230551Z 28022G31KT 11/M01 A2986 RMK A01 T01071014  RH  043%=      5-min Rain = 0
KCO1 230552Z 28024G30KT 11/M02 A2986 RMK A01 T01071015  RH  043%=      5-min Rain = 0
KCO1 230553Z 28021G30KT 11/M02 A2986 RMK A01 T01061015  RH  043%=      5-min Rain = 0
KCO1 230554Z 29025G34KT 11/M02 A2986 RMK A01 T01071015  RH  043%=      5-min Rain = 0
KCO1 230555Z 29024G29KT 11/M02 A2986 RMK A01 T01061015  RH  043%=      5-min Rain = 0
KCO1 230556Z 28024KT 11/M02 A2987 RMK A01 T01071015  RH  043%=      5-min Rain = 0
KCO1 230557Z 28026KT 11/M02 A2987 RMK A01 T01061016  RH  043%=      5-min Rain = 0
KCO1 230558Z 29019KT 11/M02 A2987 RMK A01 T01061016  RH  043%=      5-min Rain = 0
KCO1 230559Z 28022G27KT 11/M02 A2987 RMK A01 T01061016  RH  043%=      5-min Rain = 0

Page generated in 0.1441 seconds.